| time (UTC) | temp F | wind direction | speed knots | gust knots | rain 1hr in | rain 24hr in | rain mn in | humidity % | barometer mb |
| 20260504033939 | 57 | 309 | 0.0 | 1.7 | 0.00 | 0.00 | 0.00 | 65 | 1003.4 |
| 20260504033907 | 57 | 309 | 0.0 | 1.7 | 0.00 | 0.00 | 0.00 | 65 | 1003.6 |
| 20260504033835 | 57 | 309 | 0.0 | 1.7 | 0.00 | 0.00 | 0.00 | 65 | 1003.5 |
| 20260504033535 | 57 | 309 | 0.0 | 1.7 | 0.00 | 0.00 | 0.00 | 65 | 1003.5 |
| 20260504033504 | 57 | 309 | 0.0 | 1.7 | 0.00 | 0.00 | 0.00 | 65 | 1003.5 |
| 20260504033439 | 57 | 309 | 0.0 | 1.7 | 0.00 | 0.00 | 0.00 | 65 | 1003.6 |
| 20260504033127 | 57 | 309 | 0.0 | 1.7 | 0.00 | 0.00 | 0.00 | 64 | 1003.6 |
| 20260504033059 | 57 | 309 | 0.0 | 1.7 | 0.00 | 0.00 | 0.00 | 64 | 1003.6 |
| 20260504033033 | 57 | 309 | 0.0 | 1.7 | 0.00 | 0.00 | 0.00 | 64 | 1003.6 |
| 20260504033000 | 58 | 309 | 0.0 | 1.7 | 0.00 | 0.00 | 0.00 | 64 | 1003.6 |
| 20260504032721 | 58 | 309 | 0.0 | 0.9 | 0.00 | 0.00 | 0.00 | 64 | 1003.5 |
| 20260504032651 | 58 | 309 | 0.0 | 0.9 | 0.00 | 0.00 | 0.00 | 64 | 1003.6 |
| 20260504032627 | 58 | 309 | 0.0 | 0.9 | 0.00 | 0.00 | 0.00 | 64 | 1003.5 |
| 20260504032559 | 58 | 309 | 0.0 | 0.9 | 0.00 | 0.00 | 0.00 | 64 | 1003.6 |
| 20260504032531 | 58 | 309 | 0.0 | 0.9 | 0.00 | 0.00 | 0.00 | 63 | 1003.6 |
| 20260504032503 | 58 | 309 | 0.0 | 0.9 | 0.00 | 0.00 | 0.00 | 64 | 1003.5 |
| 20260504032435 | 58 | 309 | 0.0 | 0.9 | 0.00 | 0.00 | 0.00 | 63 | 1003.6 |
| 20260504032130 | 58 | 309 | 0.0 | 0.9 | 0.00 | 0.00 | 0.00 | 63 | 1003.6 |
| 20260504032105 | 58 | 309 | 0.0 | 0.9 | 0.00 | 0.00 | 0.00 | 64 | 1003.5 |
| 20260504032036 | 58 | 309 | 0.0 | 0.9 | 0.00 | 0.00 | 0.00 | 64 | 1003.6 |
| 20260504031725 | 58 | 309 | 0.0 | 0.9 | 0.00 | 0.00 | 0.00 | 63 | 1003.6 |
| 20260504031654 | 58 | 309 | 0.0 | 0.9 | 0.00 | 0.00 | 0.00 | 63 | 1003.6 |
| 20260504031631 | 58 | 309 | 0.0 | 0.9 | 0.00 | 0.00 | 0.00 | 63 | 1003.6 |
| 20260504031350 | 58 | 309 | 0.0 | 0.9 | 0.00 | 0.00 | 0.00 | 63 | 1003.6 |
| 20260504030811 | 58 | 309 | 0.0 | 0.9 | 0.00 | 0.00 | 0.00 | 63 | 1003.6 |
| 20260504030745 | 58 | 309 | 0.0 | 0.9 | 0.00 | 0.00 | 0.00 | 63 | 1003.6 |
| 20260504030714 | 58 | 309 | 0.0 | 0.9 | 0.00 | 0.00 | 0.00 | 63 | 1003.5 |
| 20260504030650 | 58 | 309 | 0.0 | 0.9 | 0.00 | 0.00 | 0.00 | 63 | 1003.5 |
| 20260504030624 | 58 | 309 | 0.0 | 1.7 | 0.00 | 0.00 | 0.00 | 63 | 1003.6 |
| 20260504030556 | 58 | 309 | 0.0 | 1.7 | 0.00 | 0.00 | 0.00 | 63 | 1003.4 |
| 20260504030532 | 58 | 309 | 0.0 | 1.7 | 0.00 | 0.00 | 0.00 | 63 | 1003.5 |
| 20260504030456 | 58 | 309 | 0.0 | 1.7 | 0.00 | 0.00 | 0.00 | 63 | 1003.5 |
| 20260504030427 | 58 | 309 | 0.0 | 1.7 | 0.00 | 0.00 | 0.00 | 63 | 1003.5 |
| 20260504030359 | 58 | 309 | 0.0 | 1.7 | 0.00 | 0.00 | 0.00 | 63 | 1003.6 |
| 20260504030331 | 58 | 309 | 0.0 | 1.7 | 0.00 | 0.00 | 0.00 | 63 | 1003.5 |
| 20260504030024 | 58 | 309 | 0.0 | 1.7 | 0.00 | 0.00 | 0.00 | 62 | 1003.5 |
| 20260504025941 | 58 | 309 | 0.0 | 1.7 | 0.00 | 0.00 | 0.00 | 62 | 1003.5 |
| 20260504025915 | 58 | 309 | 0.0 | 0.0 | 0.00 | 0.00 | 0.00 | 62 | 1003.5 |
| 20260504025615 | 58 | 309 | 0.0 | 0.0 | 0.00 | 0.00 | 0.00 | 62 | 1003.5 |
| 20260504025327 | 58 | 309 | 0.0 | 0.0 | 0.00 | 0.00 | 0.00 | 62 | 1003.5 |
| 20260504025030 | 58 | 309 | 0.0 | 0.9 | 0.00 | 0.00 | 0.00 | 62 | 1003.5 |
| 20260504024943 | 58 | 309 | 0.0 | 0.9 | 0.00 | 0.00 | 0.00 | 62 | 1003.5 |
| 20260504024418 | 58 | 309 | 0.0 | 0.9 | 0.00 | 0.00 | 0.00 | 61 | 1003.5 |
| 20260504024350 | 58 | 309 | 0.0 | 0.9 | 0.00 | 0.00 | 0.00 | 61 | 1003.5 |
| 20260504024051 | 58 | 309 | 0.0 | 0.9 | 0.00 | 0.00 | 0.00 | 61 | 1003.5 |
| 20260504024024 | 59 | 309 | 0.0 | 0.9 | 0.00 | 0.00 | 0.00 | 61 | 1003.5 |
| 20260504023737 | 59 | 309 | 0.0 | 0.9 | 0.00 | 0.00 | 0.00 | 61 | 1003.4 |
| 20260504023431 | 59 | 309 | 0.0 | 0.9 | 0.00 | 0.00 | 0.00 | 61 | 1003.5 |
| 20260504023041 | 59 | 309 | 0.0 | 1.7 | 0.00 | 0.00 | 0.00 | 62 | 1003.6 |
| 20260504023010 | 59 | 309 | 0.0 | 1.7 | 0.00 | 0.00 | 0.00 | 61 | 1003.6 |
| 20260504022732 | 34 | 92 | 0.0 | 0.0 | 0.00 | 0.03 | 0.00 | 79 | 1017.4 |
| 20260504022720 | 59 | 309 | 0.0 | 1.7 | 0.00 | 0.00 | 0.00 | 61 | 1003.6 |
| 20260504022709 | 34 | 92 | 0.0 | 0.0 | 0.00 | 0.03 | 0.00 | 79 | 1017.5 |
| 20260504022642 | 59 | 309 | 0.0 | 1.7 | 0.00 | 0.00 | 0.00 | 61 | 1003.5 |
| 20260504022613 | 59 | 309 | 0.0 | 1.7 | 0.00 | 0.00 | 0.00 | 61 | 1003.5 |
| 20260504022533 | 59 | 309 | 0.0 | 1.7 | 0.00 | 0.00 | 0.00 | 61 | 1003.5 |
| 20260504022508 | 59 | 309 | 0.0 | 1.7 | 0.00 | 0.00 | 0.00 | 61 | 1003.6 |
| 20260504022437 | 59 | 309 | 0.0 | 1.7 | 0.00 | 0.00 | 0.00 | 60 | 1003.7 |
| 20260504022409 | 59 | 309 | 0.0 | 1.7 | 0.00 | 0.00 | 0.00 | 60 | 1003.7 |
| 20260504022335 | 59 | 309 | 0.0 | 1.7 | 0.00 | 0.00 | 0.00 | 60 | 1003.6 |
| 20260504022258 | 59 | 309 | 0.0 | 0.9 | 0.00 | 0.00 | 0.00 | 60 | 1003.6 |
| 20260504022232 | 59 | 309 | 0.0 | 0.9 | 0.00 | 0.00 | 0.00 | 60 | 1003.6 |
| 20260504022204 | 59 | 309 | 0.0 | 0.9 | 0.00 | 0.00 | 0.00 | 60 | 1003.5 |
| 20260504022138 | 60 | 309 | 0.0 | 0.9 | 0.00 | 0.00 | 0.00 | 59 | 1003.6 |
| 20260504022105 | 60 | 309 | 0.0 | 0.9 | 0.00 | 0.00 | 0.00 | 59 | 1003.5 |
| 20260504022036 | 60 | 309 | 0.0 | 0.9 | 0.00 | 0.00 | 0.00 | 59 | 1003.5 |
| 20260504022008 | 60 | 309 | 0.0 | 0.9 | 0.00 | 0.00 | 0.00 | 59 | 1003.4 |
| 20260504021941 | 60 | 309 | 0.0 | 0.9 | 0.00 | 0.00 | 0.00 | 59 | 1003.4 |
| 20260504021917 | 60 | 309 | 0.0 | 0.9 | 0.00 | 0.00 | 0.00 | 59 | 1003.4 |
| 20260504021844 | 60 | 309 | 0.0 | 0.9 | 0.00 | 0.00 | 0.00 | 58 | 1003.4 |
| 20260504021814 | 60 | 309 | 0.0 | 0.9 | 0.00 | 0.00 | 0.00 | 58 | 1003.3 |
| 20260504021746 | 60 | 309 | 0.0 | 0.9 | 0.00 | 0.00 | 0.00 | 58 | 1003.3 |
| 20260504021721 | 60 | 309 | 0.0 | 0.0 | 0.00 | 0.00 | 0.00 | 58 | 1003.4 |
| 20260504021624 | 60 | 309 | 0.0 | 0.0 | 0.00 | 0.00 | 0.00 | 57 | 1003.4 |
| 20260504021548 | 60 | 309 | 0.0 | 0.0 | 0.00 | 0.00 | 0.00 | 57 | 1003.3 |
| 20260504021249 | 60 | 309 | 0.0 | 0.0 | 0.00 | 0.00 | 0.00 | 57 | 1003.3 |
| 20260504020931 | 60 | 309 | 0.0 | 0.0 | 0.00 | 0.00 | 0.00 | 57 | 1003.3 |
| 20260504020354 | 61 | 309 | 0.0 | 0.0 | 0.00 | 0.00 | 0.00 | 57 | 1003.3 |
| 20260504020033 | 61 | 309 | 0.0 | 0.0 | 0.00 | 0.00 | 0.00 | 57 | 1003.3 |
| 20260504015954 | 61 | 309 | 0.0 | 0.0 | 0.00 | 0.00 | 0.00 | 56 | 1003.3 |
| 20260504015924 | 61 | 309 | 0.0 | 0.0 | 0.00 | 0.00 | 0.00 | 56 | 1003.3 |
| 20260504015852 | 61 | 309 | 0.0 | 0.0 | 0.00 | 0.00 | 0.00 | 56 | 1003.3 |
| 20260504015828 | 61 | 309 | 0.0 | 0.9 | 0.00 | 0.00 | 0.00 | 56 | 1003.3 |
| 20260504015550 | 61 | 309 | 0.0 | 0.9 | 0.00 | 0.00 | 0.00 | 56 | 1003.3 |
| 20260504015526 | 61 | 309 | 0.0 | 0.9 | 0.00 | 0.00 | 0.00 | 56 | 1003.2 |
| 20260504015457 | 61 | 309 | 0.0 | 0.9 | 0.00 | 0.00 | 0.00 | 56 | 1003.2 |
| 20260504015426 | 61 | 309 | 0.0 | 0.9 | 0.00 | 0.00 | 0.00 | 55 | 1003.2 |
| 20260504015329 | 61 | 309 | 0.0 | 0.9 | 0.00 | 0.00 | 0.00 | 55 | 1003.1 |
| 20260504015258 | 61 | 309 | 0.0 | 0.9 | 0.00 | 0.00 | 0.00 | 55 | 1003.2 |
| 20260504015231 | 62 | 309 | 0.0 | 0.9 | 0.00 | 0.00 | 0.00 | 55 | 1003.1 |
| 20260504015203 | 62 | 309 | 0.0 | 0.9 | 0.00 | 0.00 | 0.00 | 55 | 1003.3 |
| 20260504015058 | 62 | 309 | 0.0 | 0.0 | 0.00 | 0.00 | 0.00 | 55 | 1003.2 |
| 20260504015031 | 62 | 309 | 0.0 | 0.0 | 0.00 | 0.00 | 0.00 | 54 | 1003.1 |
| 20260504014425 | 62 | 309 | 0.0 | 0.0 | 0.00 | 0.00 | 0.00 | 54 | 1003.2 |
| 20260504014402 | 62 | 309 | 0.0 | 0.0 | 0.00 | 0.00 | 0.00 | 54 | 1003.1 |
| 20260504014101 | 62 | 309 | 0.0 | 0.0 | 0.00 | 0.00 | 0.00 | 54 | 1003.1 |
| 20260504013957 | 63 | 309 | 0.0 | 0.0 | 0.00 | 0.00 | 0.00 | 53 | 1003.2 |
| 20260504013656 | 63 | 309 | 0.0 | 0.0 | 0.00 | 0.00 | 0.00 | 53 | 1003.1 |
| 20260504013630 | 63 | 309 | 0.0 | 0.0 | 0.00 | 0.00 | 0.00 | 53 | 1003.1 |
| 20260504013557 | 63 | 309 | 0.0 | 0.0 | 0.00 | 0.00 | 0.00 | 53 | 1003.1 |
| 20260504013253 | 63 | 309 | 0.0 | 0.0 | 0.00 | 0.00 | 0.00 | 53 | 1003.1 |
| 20260504013224 | 63 | 309 | 0.0 | 0.0 | 0.00 | 0.00 | 0.00 | 53 | 1003.1 |
| 20260504013155 | 63 | 309 | 0.0 | 0.0 | 0.00 | 0.00 | 0.00 | 53 | 1003.2 |
| 20260504012309 | 64 | 309 | 0.0 | 0.9 | 0.00 | 0.00 | 0.00 | 52 | 1003.1 |
| 20260504011512 | 64 | 309 | 0.0 | 0.9 | 0.00 | 0.00 | 0.00 | 52 | 1003.1 |
| 20260504011445 | 64 | 309 | 0.0 | 0.9 | 0.00 | 0.00 | 0.00 | 53 | 1003.1 |
| 20260504011417 | 64 | 309 | 0.0 | 1.7 | 0.00 | 0.00 | 0.00 | 53 | 1003.0 |
| 20260504011345 | 64 | 309 | 0.0 | 1.7 | 0.00 | 0.00 | 0.00 | 54 | 1003.1 |
| 20260504011059 | 64 | 309 | 0.0 | 1.7 | 0.00 | 0.00 | 0.00 | 53 | 1003.1 |
| 20260504011027 | 64 | 309 | 0.9 | 1.7 | 0.00 | 0.00 | 0.00 | 54 | 1003.0 |
| 20260504011000 | 64 | 309 | 0.9 | 2.6 | 0.00 | 0.00 | 0.00 | 53 | 1003.0 |
| 20260504010917 | 64 | 309 | 0.9 | 2.6 | 0.00 | 0.00 | 0.00 | 53 | 1003.1 |
| 20260504010852 | 64 | 309 | 0.9 | 2.6 | 0.00 | 0.00 | 0.00 | 53 | 1003.1 |
| 20260504010758 | 65 | 309 | 0.9 | 2.6 | 0.00 | 0.00 | 0.00 | 52 | 1003.0 |
| 20260504010731 | 65 | 309 | 0.9 | 2.6 | 0.00 | 0.00 | 0.00 | 53 | 1003.0 |
| 20260504010708 | 65 | 309 | 0.9 | 2.6 | 0.00 | 0.00 | 0.00 | 53 | 1003.0 |
| 20260504010627 | 65 | 309 | 0.9 | 2.6 | 0.00 | 0.00 | 0.00 | 52 | 1003.0 |
| 20260504010557 | 65 | 309 | 0.9 | 2.6 | 0.00 | 0.00 | 0.00 | 52 | 1003.0 |
| 20260504010528 | 65 | 309 | 0.9 | 2.6 | 0.00 | 0.00 | 0.00 | 52 | 1003.0 |
| 20260504010441 | 65 | 309 | 0.9 | 2.6 | 0.00 | 0.00 | 0.00 | 51 | 1003.0 |
| 20260504010417 | 65 | 309 | 0.9 | 2.6 | 0.00 | 0.00 | 0.00 | 51 | 1002.9 |
| 20260504010343 | 65 | 309 | 0.9 | 3.5 | 0.00 | 0.00 | 0.00 | 51 | 1002.9 |
| 20260504010320 | 65 | 309 | 0.9 | 3.5 | 0.00 | 0.00 | 0.00 | 51 | 1002.9 |
| 20260504010248 | 65 | 309 | 0.9 | 3.5 | 0.00 | 0.00 | 0.00 | 52 | 1003.0 |
| 20260504010225 | 65 | 309 | 1.7 | 3.5 | 0.00 | 0.00 | 0.00 | 52 | 1003.0 |
| 20260504010159 | 65 | 309 | 1.7 | 3.5 | 0.00 | 0.00 | 0.00 | 52 | 1003.0 |
| 20260504010131 | 65 | 309 | 1.7 | 3.5 | 0.00 | 0.00 | 0.00 | 51 | 1002.9 |
| 20260504005814 | 65 | 309 | 1.7 | 3.5 | 0.00 | 0.00 | 0.00 | 51 | 1002.9 |
| 20260504005744 | 65 | 309 | 1.7 | 3.5 | 0.00 | 0.00 | 0.00 | 51 | 1003.0 |
| 20260504005720 | 65 | 309 | 1.7 | 3.5 | 0.00 | 0.00 | 0.00 | 51 | 1002.9 |
| 20260504005650 | 65 | 309 | 1.7 | 5.2 | 0.00 | 0.00 | 0.00 | 50 | 1003.0 |
| 20260504005624 | 65 | 293 | 1.7 | 5.2 | 0.00 | 0.00 | 0.00 | 51 | 1003.0 |
| 20260504005550 | 66 | 293 | 1.7 | 5.2 | 0.00 | 0.00 | 0.00 | 50 | 1002.9 |
| 20260504005522 | 66 | 293 | 1.7 | 5.2 | 0.00 | 0.00 | 0.00 | 50 | 1003.0 |
| 20260504005455 | 66 | 324 | 1.7 | 5.2 | 0.00 | 0.00 | 0.00 | 50 | 1002.8 |
| 20260504005429 | 66 | 324 | 1.7 | 5.2 | 0.00 | 0.00 | 0.00 | 50 | 1002.9 |
| 20260504005400 | 66 | 324 | 1.7 | 5.2 | 0.00 | 0.00 | 0.00 | 50 | 1002.9 |
| 20260504005114 | 66 | 324 | 1.7 | 5.2 | 0.00 | 0.00 | 0.00 | 50 | 1002.9 |
| 20260504005050 | 66 | 324 | 1.7 | 5.2 | 0.00 | 0.00 | 0.00 | 50 | 1002.9 |
| 20260504005024 | 66 | 324 | 1.7 | 5.2 | 0.00 | 0.00 | 0.00 | 50 | 1002.8 |
| 20260504004955 | 66 | 5 | 0.9 | 3.5 | 0.00 | 0.00 | 0.00 | 50 | 1002.9 |
| 20260504004929 | 66 | 34 | 0.9 | 3.5 | 0.00 | 0.00 | 0.00 | 50 | 1003.0 |
| 20260504004651 | 66 | 323 | 0.9 | 3.5 | 0.00 | 0.00 | 0.00 | 50 | 1002.9 |
| 20260504004625 | 66 | 323 | 0.9 | 3.5 | 0.00 | 0.00 | 0.00 | 51 | 1002.9 |
| 20260504004558 | 66 | 323 | 1.7 | 4.3 | 0.00 | 0.00 | 0.00 | 50 | 1002.9 |
| 20260504004529 | 66 | 323 | 1.7 | 4.3 | 0.00 | 0.00 | 0.00 | 50 | 1002.9 |
| 20260504004505 | 67 | 323 | 1.7 | 4.3 | 0.00 | 0.00 | 0.00 | 49 | 1002.9 |
| 20260504004434 | 67 | 323 | 1.7 | 4.3 | 0.00 | 0.00 | 0.00 | 52 | 1002.8 |
| 20260504004402 | 67 | 323 | 1.7 | 7.0 | 0.00 | 0.00 | 0.00 | 52 | 1002.9 |
| 20260504004336 | 67 | 323 | 1.7 | 7.0 | 0.00 | 0.00 | 0.00 | 51 | 1002.9 |
| 20260504004303 | 67 | 323 | 1.7 | 7.0 | 0.00 | 0.00 | 0.00 | 51 | 1002.8 |
| 20260504004236 | 67 | 323 | 1.7 | 7.0 | 0.00 | 0.00 | 0.00 | 51 | 1002.9 |
| 20260504003953 | 67 | 323 | 1.7 | 7.0 | 0.00 | 0.00 | 0.00 | 49 | 1002.9 |
| 20260504003924 | 67 | 323 | 1.7 | 7.0 | 0.00 | 0.00 | 0.00 | 49 | 1002.8 |
| 20260504003622 | 67 | 323 | 1.7 | 7.0 | 0.00 | 0.00 | 0.00 | 48 | 1002.9 |
| 20260504003525 | 67 | 320 | 2.6 | 7.0 | 0.00 | 0.00 | 0.00 | 49 | 1002.9 |
| 20260504003227 | 67 | 333 | 2.6 | 7.0 | 0.00 | 0.00 | 0.00 | 48 | 1002.9 |
| 20260504003156 | 67 | 333 | 2.6 | 7.0 | 0.00 | 0.00 | 0.00 | 48 | 1002.9 |
| 20260504003126 | 67 | 313 | 2.6 | 7.0 | 0.00 | 0.00 | 0.00 | 49 | 1002.9 |
| 20260504002814 | 67 | 312 | 2.6 | 8.7 | 0.00 | 0.00 | 0.00 | 48 | 1002.8 |
| 20260504002747 | 67 | 282 | 2.6 | 8.7 | 0.00 | 0.00 | 0.00 | 48 | 1002.9 |
| 20260504002719 | 67 | 281 | 2.6 | 8.7 | 0.00 | 0.00 | 0.00 | 47 | 1002.9 |
| 20260504002645 | 67 | 319 | 3.5 | 8.7 | 0.00 | 0.00 | 0.00 | 47 | 1002.8 |
| 20260504002621 | 67 | 319 | 3.5 | 8.7 | 0.00 | 0.00 | 0.00 | 48 | 1002.9 |
| 20260504002550 | 68 | 322 | 3.5 | 8.7 | 0.00 | 0.00 | 0.00 | 47 | 1002.9 |
| 20260504002523 | 68 | 325 | 3.5 | 8.7 | 0.00 | 0.00 | 0.00 | 47 | 1002.9 |
| 20260504002450 | 68 | 327 | 3.5 | 8.7 | 0.00 | 0.00 | 0.00 | 47 | 1002.9 |
| 20260504002144 | 68 | 333 | 3.5 | 8.7 | 0.00 | 0.00 | 0.00 | 47 | 1003.0 |
| 20260504001839 | 68 | 313 | 3.5 | 9.6 | 0.00 | 0.00 | 0.00 | 48 | 1002.9 |
| 20260504001532 | 68 | 323 | 4.3 | 9.6 | 0.00 | 0.00 | 0.00 | 47 | 1002.9 |
| 20260504001505 | 68 | 323 | 4.3 | 9.6 | 0.00 | 0.00 | 0.00 | 47 | 1003.0 |
| 20260504001433 | 68 | 309 | 4.3 | 9.6 | 0.00 | 0.00 | 0.00 | 46 | 1002.9 |
| 20260504001404 | 68 | 302 | 4.3 | 9.6 | 0.00 | 0.00 | 0.00 | 47 | 1003.1 |
| 20260504001337 | 68 | 306 | 4.3 | 9.6 | 0.00 | 0.00 | 0.00 | 47 | 1003.0 |
| 20260504000540 | 68 | 254 | 4.3 | 9.6 | 0.00 | 0.00 | 0.00 | 46 | 1002.9 |
| 20260504000508 | 68 | 319 | 4.3 | 9.6 | 0.00 | 0.00 | 0.00 | 46 | 1002.9 |
| 20260504000437 | 68 | 323 | 4.3 | 9.6 | 0.00 | 0.00 | 0.00 | 47 | 1003.0 |
| 20260504000132 | 69 | 315 | 3.5 | 9.6 | 0.00 | 0.00 | 0.00 | 48 | 1003.1 |
| 20260504000105 | 69 | 317 | 3.5 | 9.6 | 0.00 | 0.00 | 0.00 | 48 | 1003.0 |
| 20260504000040 | 69 | 324 | 4.3 | 9.6 | 0.00 | 0.00 | 0.00 | 48 | 1003.1 |
| 20260504000014 | 69 | 324 | 4.3 | 9.6 | 0.00 | 0.00 | 0.00 | 47 | 1003.1 |
| 20260503235944 | 69 | 327 | 3.5 | 9.6 | 0.00 | 0.00 | 0.00 | 47 | 1003.0 |
| 20260503235638 | 69 | 331 | 3.5 | 9.6 | 0.00 | 0.00 | 0.00 | 48 | 1003.0 |
| 20260503235606 | 69 | 307 | 3.5 | 9.6 | 0.00 | 0.00 | 0.00 | 46 | 1002.9 |
| 20260503235022 | 69 | 321 | 2.6 | 7.8 | 0.00 | 0.00 | 0.00 | 47 | 1003.1 |
| 20260503234954 | 69 | 327 | 3.5 | 9.6 | 0.00 | 0.00 | 0.00 | 48 | 1003.0 |
| 20260503234922 | 69 | 279 | 3.5 | 10.4 | 0.00 | 0.00 | 0.00 | 49 | 1003.1 |
| 20260503234851 | 69 | 279 | 3.5 | 10.4 | 0.00 | 0.00 | 0.00 | 49 | 1003.1 |
| 20260503234546 | 69 | 276 | 3.5 | 10.4 | 0.00 | 0.00 | 0.00 | 46 | 1003.0 |
| 20260503234520 | 69 | 318 | 3.5 | 10.4 | 0.00 | 0.00 | 0.00 | 47 | 1003.1 |
| 20260503234140 | 69 | 302 | 3.5 | 10.4 | 0.00 | 0.00 | 0.00 | 47 | 1003.1 |
| 20260503234115 | 69 | 302 | 3.5 | 10.4 | 0.00 | 0.00 | 0.00 | 46 | 1003.1 |
| 20260503234045 | 69 | 310 | 2.6 | 7.8 | 0.00 | 0.00 | 0.00 | 47 | 1003.1 |
| 20260503233711 | 69 | 298 | 2.6 | 7.8 | 0.00 | 0.00 | 0.00 | 46 | 1003.2 |
| 20260503233638 | 69 | 350 | 2.6 | 7.8 | 0.00 | 0.00 | 0.00 | 47 | 1003.1 |
| 20260503233611 | 69 | 323 | 2.6 | 7.8 | 0.00 | 0.00 | 0.00 | 47 | 1003.1 |
| 20260503233539 | 69 | 323 | 2.6 | 7.8 | 0.00 | 0.00 | 0.00 | 46 | 1003.2 |
| 20260503233509 | 69 | 323 | 2.6 | 7.8 | 0.00 | 0.00 | 0.00 | 46 | 1003.2 |
| 20260503233227 | 69 | 245 | 2.6 | 7.8 | 0.00 | 0.00 | 0.00 | 46 | 1003.3 |
| 20260503232651 | 69 | 301 | 2.6 | 7.8 | 0.00 | 0.00 | 0.00 | 46 | 1003.2 |
| 20260503232413 | 69 | 301 | 2.6 | 7.8 | 0.00 | 0.00 | 0.00 | 45 | 1003.1 |
| 20260503232347 | 69 | 303 | 2.6 | 7.8 | 0.00 | 0.00 | 0.00 | 47 | 1003.1 |
| 20260503232321 | 69 | 280 | 2.6 | 7.0 | 0.00 | 0.00 | 0.00 | 46 | 1003.1 |
| 20260503232250 | 69 | 321 | 3.5 | 7.0 | 0.00 | 0.00 | 0.00 | 46 | 1003.1 |
| 20260503231938 | 69 | 211 | 3.5 | 8.7 | 0.00 | 0.00 | 0.00 | 46 | 1003.2 |
| 20260503231905 | 69 | 300 | 3.5 | 8.7 | 0.00 | 0.00 | 0.00 | 46 | 1003.2 |
| 20260503231557 | 69 | 191 | 3.5 | 8.7 | 0.00 | 0.00 | 0.00 | 47 | 1003.2 |
| 20260503230732 | 69 | 315 | 3.5 | 8.7 | 0.00 | 0.00 | 0.00 | 46 | 1003.2 |
| 20260503230429 | 69 | 309 | 3.5 | 7.8 | 0.00 | 0.00 | 0.00 | 47 | 1003.4 |
| 20260503225832 | 69 | 261 | 2.6 | 7.8 | 0.00 | 0.00 | 0.00 | 46 | 1003.3 |
| 20260503225758 | 69 | 331 | 2.6 | 7.8 | 0.00 | 0.00 | 0.00 | 45 | 1003.4 |
| 20260503225515 | 69 | 296 | 2.6 | 7.8 | 0.00 | 0.00 | 0.00 | 45 | 1003.4 |
| 20260503225447 | 42 | 46 | 0.9 | 2.6 | 0.01 | 0.06 | 0.00 | 80 | 1016.2 |
| 20260503225438 | 42 | 44 | 0.9 | 1.7 | 0.01 | 0.06 | 0.00 | 78 | 1016.2 |
| 20260503225414 | 69 | 320 | 3.5 | 7.8 | 0.00 | 0.00 | 0.00 | 46 | 1003.4 |
| 20260503225402 | 42 | 44 | 0.9 | 2.6 | 0.00 | 0.05 | 0.00 | 77 | 1016.3 |
| 20260503225350 | 42 | 44 | 0.9 | 2.6 | 0.00 | 0.05 | 0.00 | 77 | 1016.2 |
| 20260503225343 | 42 | 44 | 0.9 | 2.6 | 0.00 | 0.05 | 0.00 | 77 | 1016.3 |
| 20260503225324 | 69 | 324 | 2.6 | 7.8 | 0.00 | 0.00 | 0.00 | 46 | 1003.4 |
| 20260503225254 | 69 | 327 | 3.5 | 7.8 | 0.00 | 0.00 | 0.00 | 46 | 1003.4 |
| 20260503225222 | 69 | 316 | 3.5 | 8.7 | 0.00 | 0.00 | 0.00 | 47 | 1003.5 |
| 20260503225155 | 69 | 291 | 4.3 | 11.3 | 0.00 | 0.00 | 0.00 | 47 | 1003.4 |
| 20260503225124 | 69 | 301 | 4.3 | 13.9 | 0.00 | 0.00 | 0.00 | 45 | 1003.4 |
| 20260503225100 | 69 | 327 | 4.3 | 13.9 | 0.00 | 0.00 | 0.00 | 46 | 1003.5 |
| 20260503225022 | 69 | 355 | 4.3 | 13.9 | 0.00 | 0.00 | 0.00 | 47 | 1003.5 |
| 20260503224715 | 69 | 273 | 4.3 | 13.9 | 0.00 | 0.00 | 0.00 | 45 | 1003.4 |
| 20260503224639 | 69 | 317 | 4.3 | 13.9 | 0.00 | 0.00 | 0.00 | 45 | 1003.4 |
| 20260503224613 | 69 | 294 | 5.2 | 13.9 | 0.00 | 0.00 | 0.00 | 44 | 1003.5 |
| 20260503224549 | 69 | 306 | 5.2 | 13.9 | 0.00 | 0.00 | 0.00 | 44 | 1003.5 |
| 20260503224518 | 69 | 301 | 4.3 | 13.9 | 0.00 | 0.00 | 0.00 | 44 | 1003.5 |
| 20260503224449 | 69 | 317 | 4.3 | 10.4 | 0.00 | 0.00 | 0.00 | 44 | 1003.6 |
| 20260503224414 | 69 | 307 | 4.3 | 10.4 | 0.00 | 0.00 | 0.00 | 46 | 1003.5 |
| 20260503224344 | 69 | 340 | 4.3 | 10.4 | 0.00 | 0.00 | 0.00 | 45 | 1003.6 |
| 20260503224311 | 69 | 286 | 4.3 | 10.4 | 0.00 | 0.00 | 0.00 | 46 | 1003.7 |
| 20260503224241 | 69 | 299 | 4.3 | 10.4 | 0.00 | 0.00 | 0.00 | 46 | 1003.5 |
| 20260503223407 | 69 | 315 | 3.5 | 10.4 | 0.00 | 0.00 | 0.00 | 45 | 1003.6 |
| 20260503223339 | 69 | 290 | 3.5 | 10.4 | 0.00 | 0.00 | 0.00 | 45 | 1003.7 |
| 20260503223309 | 69 | 334 | 3.5 | 10.4 | 0.00 | 0.00 | 0.00 | 45 | 1003.7 |
| 20260503223235 | 69 | 355 | 3.5 | 10.4 | 0.00 | 0.00 | 0.00 | 46 | 1003.7 |
| 20260503222708 | 69 | 199 | 4.3 | 10.4 | 0.00 | 0.00 | 0.00 | 47 | 1003.6 |
| 20260503222637 | 69 | 302 | 4.3 | 10.4 | 0.00 | 0.00 | 0.00 | 46 | 1003.6 |
| 20260503222604 | 69 | 294 | 4.3 | 10.4 | 0.00 | 0.00 | 0.00 | 45 | 1003.8 |
| 20260503222536 | 69 | 309 | 5.2 | 13.0 | 0.00 | 0.00 | 0.00 | 46 | 1003.7 |
| 20260503222510 | 69 | 317 | 5.2 | 15.6 | 0.00 | 0.00 | 0.00 | 45 | 1003.7 |
| 20260503222435 | 69 | 291 | 4.3 | 15.6 | 0.00 | 0.00 | 0.00 | 45 | 1003.7 |
| 20260503222121 | 69 | 321 | 5.2 | 15.6 | 0.00 | 0.00 | 0.00 | 45 | 1003.6 |
| 20260503222046 | 69 | 302 | 5.2 | 15.6 | 0.00 | 0.00 | 0.00 | 45 | 1003.7 |
| 20260503222017 | 69 | 316 | 5.2 | 20.0 | 0.00 | 0.00 | 0.00 | 45 | 1003.5 |
| 20260503221946 | 69 | 311 | 6.1 | 20.0 | 0.00 | 0.00 | 0.00 | 45 | 1003.7 |
| 20260503221641 | 69 | 294 | 6.1 | 20.0 | 0.00 | 0.00 | 0.00 | 45 | 1003.6 |
| 20260503221350 | 69 | 323 | 6.1 | 20.0 | 0.00 | 0.00 | 0.00 | 45 | 1003.7 |
| 20260503221337 | 43 | 44 | 0.9 | 2.6 | 0.00 | 0.05 | 0.00 | 76 | 1016.3 |
| 20260503221333 | 43 | 44 | 0.9 | 2.6 | 0.00 | 0.05 | 0.00 | 76 | 1016.2 |
| 20260503221326 | 43 | 44 | 0.9 | 1.7 | 0.00 | 0.05 | 0.00 | 76 | 1016.1 |
| 20260503221322 | 43 | 44 | 0.9 | 1.7 | 0.00 | 0.05 | 0.00 | 76 | 1016.1 |
| 20260503221302 | 69 | 275 | 6.1 | 20.0 | 0.00 | 0.00 | 0.00 | 45 | 1003.7 |
| 20260503221220 | 69 | 267 | 6.1 | 20.0 | 0.00 | 0.00 | 0.00 | 45 | 1003.7 |
| 20260503221148 | 69 | 254 | 6.1 | 20.0 | 0.00 | 0.00 | 0.00 | 46 | 1003.8 |
| 20260503221120 | 69 | 298 | 6.1 | 20.0 | 0.00 | 0.00 | 0.00 | 45 | 1003.6 |
| 20260503221041 | 69 | 322 | 6.1 | 20.0 | 0.00 | 0.00 | 0.00 | 45 | 1003.5 |
| 20260503220809 | 43 | 44 | 0.9 | 3.5 | 0.00 | 0.05 | 0.00 | 75 | 1016.1 |
| 20260503220750 | 69 | 311 | 6.1 | 16.5 | 0.00 | 0.00 | 0.00 | 45 | 1003.5 |
| 20260503220714 | 69 | 324 | 6.1 | 13.9 | 0.00 | 0.00 | 0.00 | 45 | 1003.5 |
| 20260503220645 | 69 | 322 | 6.1 | 13.9 | 0.00 | 0.00 | 0.00 | 46 | 1003.5 |
| 20260503220616 | 69 | 310 | 5.2 | 13.9 | 0.00 | 0.00 | 0.00 | 47 | 1003.6 |
| 20260503220542 | 69 | 316 | 5.2 | 13.9 | 0.00 | 0.00 | 0.00 | 46 | 1003.6 |
| 20260503220306 | 43 | 44 | 0.9 | 3.5 | 0.00 | 0.05 | 0.00 | 74 | 1016.1 |
| 20260503220251 | 69 | 313 | 5.2 | 13.9 | 0.00 | 0.00 | 0.00 | 45 | 1003.5 |
| 20260503220217 | 69 | 281 | 5.2 | 13.9 | 0.00 | 0.00 | 0.00 | 45 | 1003.6 |
| 20260503220144 | 69 | 302 | 5.2 | 13.9 | 0.00 | 0.00 | 0.00 | 46 | 1003.7 |
| 20260503220119 | 69 | 323 | 5.2 | 12.2 | 0.00 | 0.00 | 0.00 | 47 | 1003.6 |
| 20260503220045 | 69 | 286 | 5.2 | 12.2 | 0.00 | 0.00 | 0.00 | 47 | 1003.5 |
| 20260503220013 | 69 | 315 | 5.2 | 12.2 | 0.00 | 0.00 | 0.00 | 46 | 1003.6 |
| 20260503215946 | 69 | 336 | 5.2 | 12.2 | 0.00 | 0.00 | 0.00 | 46 | 1003.6 |
| 20260503215916 | 69 | 265 | 5.2 | 12.2 | 0.00 | 0.00 | 0.00 | 47 | 1003.6 |
| 20260503215851 | 69 | 303 | 5.2 | 12.2 | 0.00 | 0.00 | 0.00 | 46 | 1003.6 |
| 20260503215820 | 69 | 286 | 5.2 | 12.2 | 0.00 | 0.00 | 0.00 | 48 | 1003.6 |
| 20260503215753 | 69 | 257 | 5.2 | 12.2 | 0.00 | 0.00 | 0.00 | 47 | 1003.5 |
| 20260503215716 | 69 | 308 | 5.2 | 12.2 | 0.00 | 0.00 | 0.00 | 45 | 1003.6 |
| 20260503215410 | 69 | 260 | 4.3 | 10.4 | 0.00 | 0.00 | 0.00 | 47 | 1003.7 |
| 20260503215335 | 69 | 271 | 4.3 | 12.2 | 0.00 | 0.00 | 0.00 | 46 | 1003.6 |
| 20260503215309 | 69 | 263 | 4.3 | 12.2 | 0.00 | 0.00 | 0.00 | 47 | 1003.6 |
| 20260503215242 | 69 | 308 | 4.3 | 12.2 | 0.00 | 0.00 | 0.00 | 46 | 1003.7 |
| 20260503215213 | 69 | 284 | 4.3 | 12.2 | 0.00 | 0.00 | 0.00 | 46 | 1003.7 |
| 20260503215147 | 69 | 320 | 4.3 | 12.2 | 0.00 | 0.00 | 0.00 | 46 | 1003.8 |
| 20260503215109 | 69 | 304 | 4.3 | 12.2 | 0.00 | 0.00 | 0.00 | 47 | 1003.6 |
| 20260503214519 | 69 | 153 | 3.5 | 12.2 | 0.00 | 0.00 | 0.00 | 46 | 1003.6 |
| 20260503214448 | 69 | 274 | 3.5 | 12.2 | 0.00 | 0.00 | 0.00 | 46 | 1003.7 |
| 20260503214417 | 69 | 333 | 3.5 | 8.7 | 0.00 | 0.00 | 0.00 | 48 | 1003.8 |
| 20260503214350 | 69 | 288 | 3.5 | 9.6 | 0.00 | 0.00 | 0.00 | 48 | 1003.7 |
| 20260503214319 | 69 | 318 | 4.3 | 9.6 | 0.00 | 0.00 | 0.00 | 49 | 1003.7 |
| 20260503214249 | 69 | 291 | 4.3 | 9.6 | 0.00 | 0.00 | 0.00 | 47 | 1003.7 |
| 20260503213945 | 68 | 284 | 4.3 | 9.6 | 0.00 | 0.00 | 0.00 | 48 | 1003.8 |
| 20260503213918 | 68 | 315 | 4.3 | 9.6 | 0.00 | 0.00 | 0.00 | 48 | 1003.8 |
| 20260503213604 | 68 | 248 | 4.3 | 9.6 | 0.00 | 0.00 | 0.00 | 47 | 1003.8 |
| 20260503213538 | 68 | 238 | 4.3 | 9.6 | 0.00 | 0.00 | 0.00 | 47 | 1003.7 |
| 20260503213506 | 68 | 296 | 4.3 | 9.6 | 0.00 | 0.00 | 0.00 | 47 | 1003.8 |
| 20260503213436 | 68 | 259 | 4.3 | 11.3 | 0.00 | 0.00 | 0.00 | 47 | 1003.7 |
| 20260503213409 | 68 | 331 | 5.2 | 12.2 | 0.00 | 0.00 | 0.00 | 49 | 1003.8 |
| 20260503213340 | 68 | 314 | 5.2 | 12.2 | 0.00 | 0.00 | 0.00 | 47 | 1003.6 |
| 20260503213314 | 68 | 316 | 5.2 | 12.2 | 0.00 | 0.00 | 0.00 | 47 | 1003.7 |
| 20260503212721 | 68 | 329 | 5.2 | 12.2 | 0.00 | 0.00 | 0.00 | 47 | 1003.8 |
| 20260503212653 | 68 | 194 | 5.2 | 12.2 | 0.00 | 0.00 | 0.00 | 47 | 1003.7 |
| 20260503212128 | 68 | 306 | 5.2 | 12.2 | 0.00 | 0.00 | 0.00 | 46 | 1003.9 |
| 20260503212059 | 68 | 328 | 6.1 | 13.0 | 0.00 | 0.00 | 0.00 | 46 | 1003.7 |
| 20260503212036 | 68 | 321 | 5.2 | 13.0 | 0.00 | 0.00 | 0.00 | 48 | 1003.9 |
| 20260503212007 | 68 | 315 | 5.2 | 13.0 | 0.00 | 0.00 | 0.00 | 47 | 1003.9 |
| 20260503211941 | 68 | 327 | 5.2 | 13.0 | 0.00 | 0.00 | 0.00 | 47 | 1004.1 |
| 20260503211907 | 68 | 289 | 6.1 | 13.0 | 0.00 | 0.00 | 0.00 | 47 | 1004.0 |
| 20260503211840 | 68 | 317 | 6.1 | 13.0 | 0.00 | 0.00 | 0.00 | 47 | 1004.1 |
| 20260503211526 | 68 | 318 | 5.2 | 13.0 | 0.00 | 0.00 | 0.00 | 46 | 1003.9 |
| 20260503211218 | 68 | 323 | 5.2 | 13.0 | 0.00 | 0.00 | 0.00 | 47 | 1004.0 |
| 20260503211150 | 68 | 316 | 4.3 | 13.0 | 0.00 | 0.00 | 0.00 | 47 | 1004.0 |
| 20260503211116 | 68 | 338 | 4.3 | 13.0 | 0.00 | 0.00 | 0.00 | 46 | 1004.2 |
| 20260503210734 | 68 | 335 | 4.3 | 13.0 | 0.00 | 0.00 | 0.00 | 47 | 1004.0 |
| 20260503210423 | 68 | 323 | 4.3 | 9.6 | 0.00 | 0.00 | 0.00 | 48 | 1004.0 |
| 20260503205744 | 67 | 333 | 5.2 | 12.2 | 0.00 | 0.00 | 0.00 | 47 | 1004.3 |
| 20260503205717 | 67 | 242 | 5.2 | 12.2 | 0.00 | 0.00 | 0.00 | 47 | 1004.4 |
| 20260503205643 | 67 | 320 | 5.2 | 12.2 | 0.00 | 0.00 | 0.00 | 47 | 1004.3 |
| 20260503205611 | 67 | 289 | 5.2 | 12.2 | 0.00 | 0.00 | 0.00 | 48 | 1004.2 |
| 20260503205545 | 67 | 294 | 5.2 | 12.2 | 0.00 | 0.00 | 0.00 | 47 | 1004.2 |
| 20260503205521 | 67 | 315 | 5.2 | 12.2 | 0.00 | 0.00 | 0.00 | 49 | 1004.3 |
| 20260503205454 | 67 | 307 | 5.2 | 12.2 | 0.00 | 0.00 | 0.00 | 47 | 1004.3 |
| 20260503205418 | 67 | 316 | 5.2 | 12.2 | 0.00 | 0.00 | 0.00 | 46 | 1004.3 |
| 20260503205341 | 67 | 342 | 4.3 | 12.2 | 0.00 | 0.00 | 0.00 | 47 | 1004.3 |
| 20260503205314 | 67 | 309 | 4.3 | 12.2 | 0.00 | 0.00 | 0.00 | 48 | 1004.3 |
| 20260503205245 | 67 | 315 | 4.3 | 12.2 | 0.00 | 0.00 | 0.00 | 48 | 1004.4 |
| 20260503205215 | 67 | 303 | 4.3 | 9.6 | 0.00 | 0.00 | 0.00 | 48 | 1004.5 |
| 20260503204902 | 67 | 277 | 4.3 | 9.6 | 0.00 | 0.00 | 0.00 | 47 | 1004.4 |
| 20260503204318 | 67 | 322 | 3.5 | 9.6 | 0.00 | 0.00 | 0.00 | 49 | 1004.5 |
| 20260503204000 | 66 | 268 | 4.3 | 8.7 | 0.00 | 0.00 | 0.00 | 49 | 1004.5 |
| 20260503203932 | 66 | 272 | 4.3 | 9.6 | 0.00 | 0.00 | 0.00 | 48 | 1004.4 |
| 20260503203902 | 66 | 180 | 3.5 | 9.6 | 0.00 | 0.00 | 0.00 | 48 | 1004.5 |
| 20260503203833 | 66 | 275 | 3.5 | 9.6 | 0.00 | 0.00 | 0.00 | 48 | 1004.4 |
| 20260503203802 | 67 | 293 | 4.3 | 9.6 | 0.00 | 0.00 | 0.00 | 47 | 1004.4 |
| 20260503203524 | 67 | 303 | 4.3 | 9.6 | 0.00 | 0.00 | 0.00 | 48 | 1004.5 |
| 20260503203453 | 67 | 214 | 4.3 | 9.6 | 0.00 | 0.00 | 0.00 | 47 | 1004.4 |
| 20260503203203 | 67 | 336 | 4.3 | 9.6 | 0.00 | 0.00 | 0.00 | 46 | 1004.5 |
| 20260503203150 | 44 | 117 | 1.7 | 3.5 | 0.00 | 0.05 | 0.00 | 74 | 1016.0 |
| 20260503203146 | 44 | 119 | 1.7 | 3.5 | 0.00 | 0.05 | 0.00 | 75 | 1016.0 |
| 20260503203139 | 44 | 115 | 1.7 | 3.5 | 0.00 | 0.05 | 0.00 | 76 | 1016.0 |
| 20260503203135 | 43 | 115 | 1.7 | 3.5 | 0.00 | 0.05 | 0.00 | 75 | 1016.0 |
| 20260503203128 | 43 | 115 | 0.9 | 2.6 | 0.00 | 0.05 | 0.00 | 77 | 1015.8 |
| 20260503203123 | 43 | 115 | 1.7 | 5.2 | 0.00 | 0.05 | 0.00 | 75 | 1015.9 |
| 20260503203116 | 43 | 115 | 1.7 | 5.2 | 0.00 | 0.05 | 0.00 | 75 | 1015.9 |
| 20260503203101 | 67 | 300 | 4.3 | 9.6 | 0.00 | 0.00 | 0.00 | 46 | 1004.5 |
| 20260503203005 | 67 | 327 | 4.3 | 9.6 | 0.00 | 0.00 | 0.00 | 45 | 1004.5 |
| 20260503202928 | 67 | 326 | 4.3 | 9.6 | 0.00 | 0.00 | 0.00 | 46 | 1004.5 |
| 20260503202857 | 67 | 9 | 4.3 | 8.7 | 0.00 | 0.00 | 0.00 | 48 | 1004.6 |
| 20260503202825 | 67 | 174 | 4.3 | 8.7 | 0.00 | 0.00 | 0.00 | 48 | 1004.6 |
| 20260503202751 | 67 | 190 | 4.3 | 11.3 | 0.00 | 0.00 | 0.00 | 49 | 1004.6 |
| 20260503202518 | 43 | 78 | 1.7 | 3.5 | 0.00 | 0.05 | 0.00 | 76 | 1015.6 |
| 20260503202502 | 67 | 238 | 4.3 | 11.3 | 0.00 | 0.00 | 0.00 | 48 | 1004.8 |
| 20260503202452 | 43 | 70 | 1.7 | 3.5 | 0.00 | 0.05 | 0.00 | 75 | 1015.6 |
| 20260503202443 | 44 | 96 | 1.7 | 3.5 | 0.00 | 0.05 | 0.00 | 74 | 1015.6 |
| 20260503202437 | 44 | 114 | 1.7 | 5.2 | 0.00 | 0.05 | 0.00 | 74 | 1015.6 |
| 20260503202407 | 67 | 311 | 4.3 | 11.3 | 0.00 | 0.00 | 0.00 | 48 | 1004.7 |
| 20260503202355 | 44 | 96 | 2.6 | 6.1 | 0.00 | 0.05 | 0.00 | 73 | 1015.6 |
| 20260503202348 | 44 | 90 | 2.6 | 6.1 | 0.00 | 0.05 | 0.00 | 74 | 1015.6 |
| 20260503202343 | 44 | 120 | 2.6 | 7.0 | 0.00 | 0.05 | 0.00 | 73 | 1015.5 |
| 20260503202314 | 67 | 296 | 4.3 | 11.3 | 0.00 | 0.00 | 0.00 | 50 | 1004.7 |
| 20260503202240 | 67 | 169 | 4.3 | 11.3 | 0.00 | 0.00 | 0.00 | 49 | 1004.7 |
| 20260503202208 | 67 | 227 | 4.3 | 11.3 | 0.00 | 0.00 | 0.00 | 50 | 1004.6 |
| 20260503202138 | 67 | 330 | 4.3 | 11.3 | 0.00 | 0.00 | 0.00 | 51 | 1004.8 |
| 20260503202102 | 66 | 319 | 3.5 | 11.3 | 0.00 | 0.00 | 0.00 | 52 | 1004.9 |
| 20260503201826 | 46 | 97 | 2.6 | 7.8 | 0.00 | 0.05 | 0.00 | 74 | 1015.4 |
| 20260503201819 | 46 | 101 | 3.5 | 7.8 | 0.00 | 0.05 | 0.00 | 73 | 1015.4 |
| 20260503201802 | 66 | 242 | 3.5 | 11.3 | 0.00 | 0.00 | 0.00 | 51 | 1004.8 |
| 20260503201727 | 66 | 325 | 3.5 | 11.3 | 0.00 | 0.00 | 0.00 | 51 | 1004.8 |
| 20260503201657 | 66 | 214 | 3.5 | 9.6 | 0.00 | 0.00 | 0.00 | 53 | 1005.0 |
| 20260503201625 | 66 | 193 | 3.5 | 9.6 | 0.00 | 0.00 | 0.00 | 53 | 1004.9 |
| 20260503201552 | 66 | 132 | 3.5 | 9.6 | 0.00 | 0.00 | 0.00 | 53 | 1005.1 |
| 20260503201526 | 65 | 207 | 3.5 | 9.6 | 0.00 | 0.00 | 0.00 | 54 | 1005.1 |
| 20260503201453 | 65 | 158 | 3.5 | 9.6 | 0.00 | 0.00 | 0.00 | 55 | 1005.1 |
| 20260503201427 | 65 | 209 | 3.5 | 9.6 | 0.00 | 0.00 | 0.00 | 53 | 1005.2 |
| 20260503200849 | 65 | 267 | 3.5 | 9.6 | 0.00 | 0.00 | 0.00 | 54 | 1005.2 |
| 20260503200837 | 46 | 85 | 2.6 | 8.7 | 0.00 | 0.05 | 0.00 | 75 | 1015.5 |
| 20260503200814 | 65 | 126 | 3.5 | 9.6 | 0.00 | 0.00 | 0.00 | 55 | 1005.2 |
| 20260503200737 | 65 | 310 | 3.5 | 9.6 | 0.00 | 0.00 | 0.00 | 53 | 1005.3 |
| 20260503200706 | 64 | 266 | 3.5 | 10.4 | 0.00 | 0.00 | 0.00 | 54 | 1005.3 |
| 20260503200640 | 64 | 136 | 3.5 | 10.4 | 0.00 | 0.00 | 0.00 | 56 | 1005.4 |
| 20260503200606 | 64 | 196 | 3.5 | 10.4 | 0.00 | 0.00 | 0.00 | 53 | 1005.4 |
| 20260503200535 | 64 | 204 | 3.5 | 10.4 | 0.00 | 0.00 | 0.00 | 54 | 1005.5 |
| 20260503200225 | 64 | 267 | 4.3 | 11.3 | 0.00 | 0.00 | 0.00 | 58 | 1005.3 |
| 20260503200148 | 64 | 293 | 4.3 | 11.3 | 0.00 | 0.00 | 0.00 | 57 | 1005.4 |
| 20260503195906 | 64 | 335 | 4.3 | 13.9 | 0.00 | 0.00 | 0.00 | 57 | 1005.4 |
| 20260503195841 | 64 | 159 | 4.3 | 13.9 | 0.00 | 0.00 | 0.00 | 54 | 1005.4 |
| 20260503195809 | 64 | 164 | 4.3 | 13.9 | 0.00 | 0.00 | 0.00 | 54 | 1005.2 |
| 20260503195734 | 64 | 342 | 4.3 | 13.9 | 0.00 | 0.00 | 0.00 | 54 | 1005.3 |
| 20260503195706 | 64 | 157 | 4.3 | 13.9 | 0.00 | 0.00 | 0.00 | 54 | 1005.4 |
| 20260503195634 | 64 | 300 | 4.3 | 13.9 | 0.00 | 0.00 | 0.00 | 53 | 1005.4 |
| 20260503195610 | 64 | 273 | 4.3 | 13.9 | 0.00 | 0.00 | 0.00 | 55 | 1005.5 |
| 20260503195537 | 64 | 190 | 4.3 | 13.9 | 0.00 | 0.00 | 0.00 | 53 | 1005.5 |
| 20260503195504 | 64 | 155 | 4.3 | 13.9 | 0.00 | 0.00 | 0.00 | 54 | 1005.4 |
| 20260503195436 | 64 | 181 | 4.3 | 13.9 | 0.00 | 0.00 | 0.00 | 54 | 1005.5 |
| 20260503195126 | 65 | 120 | 4.3 | 12.2 | 0.00 | 0.00 | 0.00 | 55 | 1005.6 |
| 20260503195056 | 64 | 123 | 4.3 | 12.2 | 0.00 | 0.00 | 0.00 | 56 | 1005.6 |
| 20260503194748 | 64 | 202 | 4.3 | 12.2 | 0.00 | 0.00 | 0.00 | 56 | 1005.6 |
| 20260503194434 | 64 | 291 | 5.2 | 15.6 | 0.00 | 0.00 | 0.00 | 55 | 1005.6 |
| 20260503194141 | 64 | 226 | 5.2 | 15.6 | 0.00 | 0.00 | 0.00 | 54 | 1005.8 |
| 20260503194127 | 45 | 137 | 1.7 | 7.0 | 0.00 | 0.05 | 0.00 | 75 | 1015.5 |
| 20260503194118 | 45 | 124 | 2.6 | 7.0 | 0.00 | 0.05 | 0.00 | 74 | 1015.4 |
| 20260503194114 | 45 | 106 | 2.6 | 7.0 | 0.00 | 0.05 | 0.00 | 72 | 1015.5 |
| 20260503194106 | 45 | 106 | 2.6 | 7.0 | 0.00 | 0.05 | 0.00 | 72 | 1015.6 |
| 20260503194047 | 64 | 0 | 5.2 | 15.6 | 0.00 | 0.00 | 0.00 | 54 | 1005.8 |
| 20260503194014 | 64 | 309 | 5.2 | 15.6 | 0.00 | 0.00 | 0.00 | 53 | 1005.7 |
| 20260503193941 | 64 | 261 | 5.2 | 15.6 | 0.00 | 0.00 | 0.00 | 53 | 1005.8 |
| 20260503193909 | 64 | 277 | 5.2 | 15.6 | 0.00 | 0.00 | 0.00 | 53 | 1005.8 |
| 20260503193837 | 64 | 145 | 5.2 | 15.6 | 0.00 | 0.00 | 0.00 | 53 | 1005.8 |
| 20260503193809 | 64 | 209 | 5.2 | 15.6 | 0.00 | 0.00 | 0.00 | 52 | 1005.8 |
| 20260503193745 | 64 | 286 | 5.2 | 15.6 | 0.00 | 0.00 | 0.00 | 53 | 1006.0 |
| 20260503193710 | 64 | 316 | 5.2 | 15.6 | 0.00 | 0.00 | 0.00 | 52 | 1006.0 |
| 20260503193356 | 64 | 329 | 5.2 | 19.1 | 0.00 | 0.00 | 0.00 | 53 | 1005.9 |
| 20260503193330 | 64 | 180 | 5.2 | 19.1 | 0.00 | 0.00 | 0.00 | 52 | 1005.9 |
| 20260503193257 | 64 | 271 | 6.1 | 19.1 | 0.00 | 0.00 | 0.00 | 51 | 1005.9 |
| 20260503193224 | 65 | 293 | 6.1 | 19.1 | 0.00 | 0.00 | 0.00 | 51 | 1005.8 |
| 20260503193158 | 65 | 246 | 6.1 | 19.1 | 0.00 | 0.00 | 0.00 | 50 | 1005.8 |
| 20260503192851 | 65 | 300 | 5.2 | 19.1 | 0.00 | 0.00 | 0.00 | 51 | 1005.8 |
| 20260503192824 | 65 | 333 | 5.2 | 19.1 | 0.00 | 0.00 | 0.00 | 51 | 1005.8 |
| 20260503192752 | 65 | 312 | 4.3 | 19.1 | 0.00 | 0.00 | 0.00 | 49 | 1005.7 |
| 20260503192722 | 65 | 292 | 4.3 | 10.4 | 0.00 | 0.00 | 0.00 | 50 | 1006.2 |
| 20260503192649 | 65 | 256 | 4.3 | 10.4 | 0.00 | 0.00 | 0.00 | 50 | 1005.9 |
| 20260503192623 | 65 | 324 | 4.3 | 10.4 | 0.00 | 0.00 | 0.00 | 50 | 1005.9 |
| 20260503192316 | 65 | 186 | 4.3 | 10.4 | 0.00 | 0.00 | 0.00 | 50 | 1005.9 |
| 20260503192250 | 65 | 130 | 4.3 | 10.4 | 0.00 | 0.00 | 0.00 | 50 | 1005.9 |
| 20260503192222 | 65 | 262 | 4.3 | 10.4 | 0.00 | 0.00 | 0.00 | 51 | 1005.9 |
| 20260503192146 | 65 | 144 | 4.3 | 10.4 | 0.00 | 0.00 | 0.00 | 51 | 1006.0 |
| 20260503192119 | 65 | 224 | 4.3 | 13.0 | 0.00 | 0.00 | 0.00 | 51 | 1005.9 |
| 20260503191842 | 65 | 40 | 4.3 | 13.0 | 0.00 | 0.00 | 0.00 | 51 | 1006.2 |
| 20260503191816 | 64 | 286 | 5.2 | 13.0 | 0.00 | 0.00 | 0.00 | 51 | 1006.0 |
| 20260503191506 | 64 | 17 | 5.2 | 13.0 | 0.00 | 0.00 | 0.00 | 49 | 1006.3 |
| 20260503191436 | 64 | 323 | 5.2 | 13.0 | 0.00 | 0.00 | 0.00 | 50 | 1006.0 |
| 20260503191150 | 64 | 0 | 5.2 | 13.0 | 0.00 | 0.00 | 0.00 | 51 | 1005.9 |
| 20260503190613 | 45 | 76 | 2.6 | 7.0 | 0.00 | 0.05 | 0.00 | 70 | 1015.4 |
| 20260503190558 | 46 | 106 | 2.6 | 7.0 | 0.00 | 0.05 | 0.00 | 67 | 1015.5 |
| 20260503190553 | 47 | 321 | 2.6 | 5.2 | 0.00 | 0.05 | 0.00 | 61 | 1015.4 |
| 20260503190545 | 47 | 329 | 2.6 | 5.2 | 0.00 | 0.05 | 0.00 | 60 | 1015.2 |
| 20260503190531 | 64 | 270 | 5.2 | 13.0 | 0.00 | 0.00 | 0.00 | 49 | 1006.4 |
| 20260503190458 | 64 | 155 | 5.2 | 13.0 | 0.00 | 0.00 | 0.00 | 50 | 1006.0 |
| 20260503190428 | 64 | 192 | 5.2 | 13.0 | 0.00 | 0.00 | 0.00 | 51 | 1006.0 |
| 20260503190353 | 64 | 275 | 5.2 | 13.0 | 0.00 | 0.00 | 0.00 | 50 | 1006.0 |
| 20260503190322 | 64 | 150 | 5.2 | 13.0 | 0.00 | 0.00 | 0.00 | 48 | 1005.8 |
| 20260503190255 | 64 | 200 | 4.3 | 13.0 | 0.00 | 0.00 | 0.00 | 50 | 1005.8 |
| 20260503190228 | 64 | 65 | 4.3 | 12.2 | 0.00 | 0.00 | 0.00 | 50 | 1005.8 |
| 20260503185915 | 63 | 194 | 4.3 | 12.2 | 0.00 | 0.00 | 0.00 | 49 | 1005.8 |
| 20260503185843 | 63 | 200 | 4.3 | 9.6 | 0.00 | 0.00 | 0.00 | 50 | 1006.2 |
| 20260503185527 | 63 | 196 | 4.3 | 10.4 | 0.00 | 0.00 | 0.00 | 51 | 1005.9 |
| 20260503185453 | 63 | 192 | 4.3 | 10.4 | 0.00 | 0.00 | 0.00 | 52 | 1005.8 |
| 20260503185425 | 63 | 126 | 4.3 | 10.4 | 0.00 | 0.00 | 0.00 | 51 | 1005.9 |
| 20260503185358 | 63 | 173 | 4.3 | 10.4 | 0.00 | 0.00 | 0.00 | 53 | 1005.8 |
| 20260503185330 | 62 | 164 | 4.3 | 10.4 | 0.00 | 0.00 | 0.00 | 52 | 1005.8 |
| 20260503185258 | 62 | 130 | 4.3 | 10.4 | 0.00 | 0.00 | 0.00 | 51 | 1005.9 |
| 20260503185227 | 62 | 157 | 4.3 | 10.4 | 0.00 | 0.00 | 0.00 | 50 | 1006.0 |
| 20260503185203 | 63 | 184 | 4.3 | 10.4 | 0.00 | 0.00 | 0.00 | 51 | 1005.8 |
| 20260503184851 | 63 | 284 | 4.3 | 11.3 | 0.00 | 0.00 | 0.00 | 52 | 1005.9 |
| 20260503184546 | 63 | 343 | 5.2 | 11.3 | 0.00 | 0.00 | 0.00 | 53 | 1005.9 |
| 20260503184516 | 62 | 147 | 5.2 | 11.3 | 0.00 | 0.00 | 0.00 | 51 | 1005.8 |
| 20260503184447 | 62 | 227 | 5.2 | 11.3 | 0.00 | 0.00 | 0.00 | 50 | 1005.9 |
| 20260503184416 | 62 | 315 | 5.2 | 11.3 | 0.00 | 0.00 | 0.00 | 52 | 1005.9 |
| 20260503183814 | 63 | 157 | 5.2 | 11.3 | 0.00 | 0.00 | 0.00 | 49 | 1006.0 |
| 20260503183747 | 63 | 192 | 5.2 | 11.3 | 0.00 | 0.00 | 0.00 | 50 | 1006.0 |
| 20260503183717 | 63 | 143 | 4.3 | 11.3 | 0.00 | 0.00 | 0.00 | 49 | 1006.0 |
| 20260503183406 | 63 | 208 | 4.3 | 11.3 | 0.00 | 0.00 | 0.00 | 48 | 1006.3 |
| 20260503183334 | 64 | 167 | 4.3 | 11.3 | 0.00 | 0.00 | 0.00 | 48 | 1006.2 |
| 20260503183308 | 64 | 87 | 4.3 | 11.3 | 0.00 | 0.00 | 0.00 | 48 | 1006.2 |
| 20260503183235 | 64 | 304 | 5.2 | 11.3 | 0.00 | 0.00 | 0.00 | 48 | 1006.0 |
| 20260503183207 | 64 | 164 | 4.3 | 11.3 | 0.00 | 0.00 | 0.00 | 48 | 1006.3 |
| 20260503183130 | 64 | 164 | 4.3 | 11.3 | 0.00 | 0.00 | 0.00 | 48 | 1006.3 |
| 20260503183102 | 64 | 150 | 4.3 | 10.4 | 0.00 | 0.00 | 0.00 | 49 | 1006.3 |
| 20260503183036 | 64 | 194 | 3.5 | 10.4 | 0.00 | 0.00 | 0.00 | 49 | 1006.4 |
| 20260503182443 | 64 | 183 | 3.5 | 8.7 | 0.00 | 0.00 | 0.00 | 50 | 1006.2 |
| 20260503182408 | 64 | 284 | 3.5 | 8.7 | 0.00 | 0.00 | 0.00 | 50 | 1006.0 |
| 20260503182124 | 64 | 84 | 3.5 | 8.7 | 0.00 | 0.00 | 0.00 | 52 | 1006.2 |
| 20260503182104 | 46 | 300 | 2.6 | 6.1 | 0.00 | 0.05 | 0.00 | 64 | 1015.3 |
| 20260503182058 | 46 | 309 | 3.5 | 7.0 | 0.00 | 0.05 | 0.00 | 61 | 1015.2 |
| 20260503182049 | 46 | 313 | 3.5 | 7.0 | 0.00 | 0.05 | 0.00 | 60 | 1015.3 |
| 20260503182041 | 48 | 319 | 1.7 | 7.0 | 0.00 | 0.05 | 0.00 | 60 | 1015.1 |
| 20260503182030 | 48 | 317 | 2.6 | 7.0 | 0.00 | 0.05 | 0.00 | 60 | 1015.1 |
| 20260503182018 | 64 | 180 | 3.5 | 11.3 | 0.00 | 0.00 | 0.00 | 52 | 1006.2 |
| 20260503181959 | 49 | 313 | 2.6 | 6.1 | 0.00 | 0.05 | 0.00 | 58 | 1015.0 |
| 20260503181943 | 49 | 309 | 2.6 | 7.0 | 0.00 | 0.05 | 0.00 | 61 | 1015.1 |
| 20260503181929 | 63 | 177 | 3.5 | 11.3 | 0.00 | 0.00 | 0.00 | 52 | 1006.0 |
| 20260503181852 | 49 | 315 | 2.6 | 7.0 | 0.00 | 0.05 | 0.00 | 62 | 1015.1 |
| 20260503181844 | 48 | 329 | 2.6 | 7.0 | 0.00 | 0.05 | 0.00 | 59 | 1015.1 |
| 20260503181829 | 63 | 308 | 3.5 | 11.3 | 0.00 | 0.00 | 0.00 | 52 | 1006.3 |
| 20260503181755 | 63 | 336 | 4.3 | 11.3 | 0.00 | 0.00 | 0.00 | 54 | 1006.3 |
| 20260503181726 | 63 | 308 | 3.5 | 11.3 | 0.00 | 0.00 | 0.00 | 51 | 1006.0 |
| 20260503181650 | 63 | 292 | 3.5 | 11.3 | 0.00 | 0.00 | 0.00 | 53 | 1006.2 |
| 20260503181623 | 63 | 186 | 4.3 | 11.3 | 0.00 | 0.00 | 0.00 | 53 | 1006.0 |
| 20260503181552 | 63 | 181 | 4.3 | 11.3 | 0.00 | 0.00 | 0.00 | 53 | 1006.3 |
| 20260503181522 | 63 | 176 | 4.3 | 11.3 | 0.00 | 0.00 | 0.00 | 52 | 1006.4 |
| 20260503181454 | 62 | 182 | 4.3 | 11.3 | 0.00 | 0.00 | 0.00 | 53 | 1006.3 |
| 20260503181421 | 62 | 138 | 4.3 | 10.4 | 0.00 | 0.00 | 0.00 | 52 | 1006.4 |
| 20260503181112 | 62 | 113 | 5.2 | 10.4 | 0.00 | 0.00 | 0.00 | 52 | 1006.5 |
| 20260503181039 | 62 | 178 | 5.2 | 10.4 | 0.00 | 0.00 | 0.00 | 56 | 1006.4 |
| 20260503180732 | 62 | 107 | 6.1 | 13.0 | 0.00 | 0.00 | 0.00 | 53 | 1006.4 |
| 20260503180706 | 62 | 127 | 6.1 | 13.0 | 0.00 | 0.00 | 0.00 | 52 | 1006.4 |
| 20260503180628 | 62 | 79 | 6.1 | 13.0 | 0.00 | 0.00 | 0.00 | 54 | 1006.3 |
| 20260503180558 | 62 | 342 | 5.2 | 14.8 | 0.00 | 0.00 | 0.00 | 54 | 1006.3 |
| 20260503180532 | 62 | 154 | 5.2 | 14.8 | 0.00 | 0.00 | 0.00 | 55 | 1006.5 |
| 20260503175940 | 62 | 140 | 5.2 | 14.8 | 0.00 | 0.00 | 0.00 | 55 | 1006.5 |
| 20260503175909 | 62 | 139 | 4.3 | 14.8 | 0.00 | 0.00 | 0.00 | 55 | 1006.5 |
| 20260503175624 | 62 | 140 | 4.3 | 14.8 | 0.00 | 0.00 | 0.00 | 54 | 1006.5 |
| 20260503175549 | 62 | 170 | 4.3 | 14.8 | 0.00 | 0.00 | 0.00 | 58 | 1006.6 |
| 20260503175518 | 62 | 196 | 4.3 | 14.8 | 0.00 | 0.00 | 0.00 | 55 | 1006.5 |
| 20260503175451 | 62 | 253 | 4.3 | 14.8 | 0.00 | 0.00 | 0.00 | 55 | 1006.6 |
| 20260503175423 | 62 | 171 | 4.3 | 12.2 | 0.00 | 0.00 | 0.00 | 55 | 1006.7 |
| 20260503175058 | 62 | 136 | 4.3 | 13.9 | 0.00 | 0.00 | 0.00 | 58 | 1006.5 |
| 20260503175029 | 62 | 143 | 4.3 | 13.9 | 0.00 | 0.00 | 0.00 | 60 | 1006.6 |
| 20260503174954 | 61 | 256 | 4.3 | 13.9 | 0.00 | 0.00 | 0.00 | 58 | 1006.6 |
| 20260503174927 | 61 | 74 | 4.3 | 13.9 | 0.00 | 0.00 | 0.00 | 57 | 1006.6 |
| 20260503174900 | 61 | 254 | 4.3 | 13.9 | 0.00 | 0.00 | 0.00 | 60 | 1006.7 |
| 20260503174830 | 61 | 163 | 4.3 | 13.9 | 0.00 | 0.00 | 0.00 | 58 | 1006.8 |
| 20260503174754 | 61 | 196 | 4.3 | 13.9 | 0.00 | 0.00 | 0.00 | 59 | 1006.9 |
| 20260503174722 | 61 | 317 | 4.3 | 13.9 | 0.00 | 0.00 | 0.00 | 60 | 1006.9 |
| 20260503174655 | 60 | 137 | 5.2 | 13.9 | 0.00 | 0.00 | 0.00 | 60 | 1006.9 |
| 20260503174345 | 60 | 136 | 4.3 | 13.0 | 0.00 | 0.00 | 0.00 | 60 | 1006.8 |
| 20260503174310 | 60 | 284 | 4.3 | 13.0 | 0.00 | 0.00 | 0.00 | 60 | 1006.9 |
| 20260503174237 | 60 | 331 | 4.3 | 13.0 | 0.00 | 0.00 | 0.00 | 60 | 1007.0 |
| 20260503174210 | 60 | 75 | 4.3 | 13.0 | 0.00 | 0.00 | 0.00 | 63 | 1006.9 |
| 20260503173858 | 60 | 39 | 5.2 | 13.0 | 0.00 | 0.00 | 0.00 | 62 | 1007.0 |
| 20260503173333 | 59 | 154 | 5.2 | 15.6 | 0.00 | 0.00 | 0.00 | 62 | 1007.0 |
| 20260503173307 | 59 | 178 | 5.2 | 15.6 | 0.00 | 0.00 | 0.00 | 62 | 1007.0 |
| 20260503173235 | 59 | 182 | 5.2 | 15.6 | 0.00 | 0.00 | 0.00 | 63 | 1007.2 |
| 20260503173200 | 59 | 225 | 5.2 | 15.6 | 0.00 | 0.00 | 0.00 | 61 | 1007.3 |
| 20260503173136 | 59 | 173 | 5.2 | 15.6 | 0.00 | 0.00 | 0.00 | 62 | 1007.5 |
| 20260503173106 | 59 | 175 | 5.2 | 15.6 | 0.00 | 0.00 | 0.00 | 62 | 1007.3 |
| 20260503172745 | 58 | 114 | 5.2 | 15.6 | 0.00 | 0.00 | 0.00 | 62 | 1007.5 |
| 20260503172711 | 58 | 146 | 5.2 | 15.6 | 0.00 | 0.00 | 0.00 | 63 | 1007.2 |
| 20260503172644 | 58 | 170 | 4.3 | 11.3 | 0.00 | 0.00 | 0.00 | 63 | 1007.4 |
| 20260503172334 | 58 | 161 | 5.2 | 11.3 | 0.00 | 0.00 | 0.00 | 62 | 1007.5 |
| 20260503172307 | 58 | 152 | 5.2 | 11.3 | 0.00 | 0.00 | 0.00 | 63 | 1007.4 |
| 20260503172229 | 58 | 138 | 5.2 | 11.3 | 0.00 | 0.00 | 0.00 | 63 | 1007.6 |
| 20260503172203 | 58 | 299 | 5.2 | 15.6 | 0.00 | 0.00 | 0.00 | 64 | 1007.6 |
| 20260503172133 | 57 | 175 | 5.2 | 15.6 | 0.00 | 0.00 | 0.00 | 64 | 1007.4 |
| 20260503172106 | 57 | 188 | 5.2 | 15.6 | 0.00 | 0.00 | 0.00 | 64 | 1007.7 |
| 20260503172040 | 57 | 199 | 5.2 | 15.6 | 0.00 | 0.00 | 0.00 | 63 | 1007.5 |
| 20260503171957 | 57 | 165 | 5.2 | 15.6 | 0.00 | 0.00 | 0.00 | 63 | 1007.8 |
| 20260503171444 | 56 | 225 | 5.2 | 15.6 | 0.00 | 0.00 | 0.00 | 64 | 1007.5 |
| 20260503171151 | 49 | 309 | 1.7 | 7.0 | 0.00 | 0.05 | 0.00 | 62 | 1015.0 |
| 20260503171129 | 48 | 17 | 2.6 | 6.1 | 0.00 | 0.05 | 0.00 | 63 | 1014.8 |
| 20260503171121 | 47 | 5 | 1.7 | 6.1 | 0.00 | 0.05 | 0.00 | 69 | 1015.0 |
| 20260503171116 | 47 | 311 | 2.6 | 7.0 | 0.00 | 0.05 | 0.00 | 69 | 1015.0 |
| 20260503171105 | 56 | 214 | 4.3 | 15.6 | 0.00 | 0.00 | 0.00 | 65 | 1007.8 |
| 20260503171024 | 56 | 72 | 4.3 | 15.6 | 0.00 | 0.00 | 0.00 | 66 | 1007.6 |
| 20260503170955 | 56 | 159 | 4.3 | 12.2 | 0.00 | 0.00 | 0.00 | 66 | 1007.8 |
| 20260503170920 | 56 | 146 | 4.3 | 11.3 | 0.00 | 0.00 | 0.00 | 66 | 1007.8 |
| 20260503170851 | 56 | 143 | 4.3 | 11.3 | 0.00 | 0.00 | 0.00 | 66 | 1007.9 |
| 20260503170825 | 56 | 160 | 4.3 | 15.6 | 0.00 | 0.00 | 0.00 | 65 | 1007.9 |
| 20260503170749 | 56 | 169 | 4.3 | 15.6 | 0.00 | 0.00 | 0.00 | 66 | 1007.8 |
| 20260503170648 | 55 | 301 | 5.2 | 15.6 | 0.00 | 0.00 | 0.00 | 65 | 1008.1 |
| 20260503170343 | 55 | 165 | 5.2 | 15.6 | 0.00 | 0.00 | 0.00 | 65 | 1008.1 |
| 20260503170305 | 55 | 227 | 5.2 | 15.6 | 0.00 | 0.00 | 0.00 | 65 | 1007.9 |
| 20260503151008 | 55 | 307 | 7.0 | 15.6 | 0.00 | 0.00 | 0.00 | 62 | 1009.4 |
| 20260503150944 | 55 | 336 | 6.1 | 15.6 | 0.00 | 0.00 | 0.00 | 61 | 1009.5 |
| 20260503150343 | 55 | 286 | 5.2 | 15.6 | 0.00 | 0.00 | 0.00 | 61 | 1009.5 |
| 20260503150319 | 55 | 302 | 5.2 | 15.6 | 0.00 | 0.00 | 0.00 | 61 | 1009.3 |
| 20260503150247 | 55 | 293 | 5.2 | 11.3 | 0.00 | 0.00 | 0.00 | 61 | 1009.6 |
| 20260503140115 | 55 | 275 | 4.3 | 9.6 | 0.00 | 0.00 | 0.00 | 61 | 1009.9 |
| 20260503131322 | 51 | 307 | 2.6 | 8.7 | 0.00 | 0.00 | 0.00 | 62 | 1010.4 |
| 20260503131254 | 51 | 52 | 2.6 | 8.7 | 0.00 | 0.00 | 0.00 | 61 | 1010.4 |
| 20260503131225 | 51 | 319 | 2.6 | 8.7 | 0.00 | 0.00 | 0.00 | 62 | 1010.4 |
| 20260503130921 | 51 | 299 | 2.6 | 8.7 | 0.00 | 0.00 | 0.00 | 61 | 1010.1 |
| 20260503130611 | 51 | 300 | 3.5 | 10.4 | 0.00 | 0.00 | 0.00 | 62 | 1010.3 |
| 20260503130545 | 51 | 298 | 3.5 | 10.4 | 0.00 | 0.00 | 0.00 | 62 | 1010.3 |
| 20260503120206 | 47 | 302 | 2.6 | 10.4 | 0.00 | 0.00 | 0.00 | 64 | 1010.5 |
| 20260503120136 | 47 | 288 | 1.7 | 10.4 | 0.00 | 0.00 | 0.00 | 64 | 1010.6 |
| 20260503120105 | 47 | 325 | 1.7 | 10.4 | 0.00 | 0.00 | 0.00 | 64 | 1010.5 |
| 20260503110827 | 47 | 316 | 1.7 | 8.7 | 0.00 | 0.00 | 0.00 | 63 | 1010.3 |
| 20260503110515 | 47 | 315 | 1.7 | 4.3 | 0.00 | 0.00 | 0.00 | 62 | 1010.1 |
| 20260503110449 | 47 | 317 | 1.7 | 4.3 | 0.00 | 0.00 | 0.00 | 62 | 1010.1 |
| 20260503110138 | 47 | 313 | 1.7 | 4.3 | 0.00 | 0.00 | 0.00 | 62 | 1010.1 |
| 20260503100228 | 47 | 254 | 1.7 | 6.1 | 0.00 | 0.00 | 0.00 | 61 | 1010.5 |
| 20260503100201 | 47 | 252 | 1.7 | 6.1 | 0.00 | 0.00 | 0.00 | 61 | 1010.4 |
| 20260503100136 | 47 | 250 | 1.7 | 6.1 | 0.00 | 0.00 | 0.00 | 61 | 1010.5 |
| 20260503100104 | 47 | 246 | 1.7 | 6.1 | 0.00 | 0.00 | 0.00 | 60 | 1010.5 |
| 20260503090503 | 47 | 240 | 1.7 | 3.5 | 0.00 | 0.00 | 0.00 | 61 | 1010.9 |
| 20260503090429 | 47 | 242 | 1.7 | 4.3 | 0.00 | 0.00 | 0.00 | 60 | 1011.0 |
| 20260503090351 | 47 | 250 | 1.7 | 4.3 | 0.00 | 0.00 | 0.00 | 59 | 1011.0 |
| 20260503090325 | 47 | 307 | 1.7 | 4.3 | 0.00 | 0.00 | 0.00 | 59 | 1010.9 |
| 20260503090257 | 47 | 306 | 1.7 | 4.3 | 0.00 | 0.00 | 0.00 | 60 | 1011.1 |
| 20260503090231 | 47 | 301 | 1.7 | 4.3 | 0.00 | 0.00 | 0.00 | 60 | 1011.0 |
| 20260503090202 | 47 | 305 | 1.7 | 4.3 | 0.00 | 0.00 | 0.00 | 60 | 1010.9 |
| 20260503081542 | 46 | 246 | 1.7 | 5.2 | 0.00 | 0.00 | 0.00 | 61 | 1011.3 |
| 20260503081512 | 46 | 260 | 1.7 | 5.2 | 0.00 | 0.00 | 0.00 | 61 | 1011.2 |
| 20260503081448 | 46 | 260 | 1.7 | 5.2 | 0.00 | 0.00 | 0.00 | 61 | 1011.3 |
| 20260503081141 | 46 | 220 | 1.7 | 4.3 | 0.00 | 0.00 | 0.00 | 61 | 1011.3 |
| 20260503081103 | 46 | 219 | 1.7 | 4.3 | 0.00 | 0.00 | 0.00 | 62 | 1011.3 |
| 20260503081033 | 46 | 311 | 0.9 | 4.3 | 0.00 | 0.00 | 0.00 | 62 | 1011.3 |
| 20260503081009 | 46 | 311 | 0.9 | 4.3 | 0.00 | 0.00 | 0.00 | 62 | 1011.3 |
| 20260503080708 | 46 | 319 | 1.7 | 4.3 | 0.00 | 0.00 | 0.00 | 62 | 1011.4 |
| 20260503080612 | 46 | 319 | 1.7 | 4.3 | 0.00 | 0.00 | 0.00 | 62 | 1011.4 |
| 20260503080545 | 46 | 319 | 1.7 | 4.3 | 0.00 | 0.00 | 0.00 | 62 | 1011.4 |
| 20260503080522 | 46 | 303 | 1.7 | 4.3 | 0.00 | 0.00 | 0.00 | 62 | 1011.4 |
| 20260503080451 | 46 | 304 | 1.7 | 4.3 | 0.00 | 0.00 | 0.00 | 62 | 1011.4 |
| 20260503080424 | 46 | 293 | 1.7 | 4.3 | 0.00 | 0.00 | 0.00 | 62 | 1011.3 |
| 20260503080140 | 46 | 293 | 1.7 | 4.3 | 0.00 | 0.00 | 0.00 | 62 | 1011.4 |
| 20260503072843 | 45 | 315 | 0.9 | 6.1 | 0.00 | 0.00 | 0.00 | 64 | 1011.5 |
| 20260503072819 | 45 | 241 | 1.7 | 3.5 | 0.00 | 0.00 | 0.00 | 64 | 1011.4 |
| 20260503072750 | 45 | 241 | 1.7 | 4.3 | 0.00 | 0.00 | 0.00 | 64 | 1011.5 |
| 20260503072200 | 45 | 288 | 1.7 | 4.3 | 0.00 | 0.00 | 0.00 | 64 | 1011.4 |
| 20260503072134 | 45 | 288 | 1.7 | 4.3 | 0.00 | 0.00 | 0.00 | 64 | 1011.6 |
| 20260503072105 | 45 | 298 | 1.7 | 4.3 | 0.00 | 0.00 | 0.00 | 65 | 1011.5 |
| 20260503072039 | 45 | 297 | 1.7 | 4.3 | 0.00 | 0.00 | 0.00 | 65 | 1011.5 |
| 20260503071723 | 45 | 302 | 1.7 | 4.3 | 0.00 | 0.00 | 0.00 | 64 | 1011.5 |
| 20260503071655 | 45 | 302 | 0.9 | 4.3 | 0.00 | 0.00 | 0.00 | 65 | 1011.6 |
| 20260503071627 | 45 | 260 | 0.9 | 2.6 | 0.00 | 0.00 | 0.00 | 65 | 1011.4 |
| 20260503071316 | 44 | 260 | 0.9 | 2.6 | 0.00 | 0.00 | 0.00 | 65 | 1011.6 |
| 20260503071243 | 44 | 255 | 0.9 | 3.5 | 0.00 | 0.00 | 0.00 | 65 | 1011.7 |
| 20260503071217 | 44 | 252 | 0.9 | 3.5 | 0.00 | 0.00 | 0.00 | 65 | 1011.6 |
| 20260503071147 | 44 | 252 | 0.9 | 3.5 | 0.00 | 0.00 | 0.00 | 65 | 1011.6 |
| 20260503070630 | 44 | 252 | 0.9 | 3.5 | 0.00 | 0.00 | 0.00 | 65 | 1011.7 |
| 20260503070555 | 44 | 263 | 0.9 | 3.5 | 0.00 | 0.00 | 0.00 | 65 | 1011.6 |
| 20260503070248 | 44 | 264 | 0.9 | 3.5 | 0.00 | 0.00 | 0.00 | 65 | 1011.7 |
| 20260503070213 | 44 | 264 | 0.9 | 3.5 | 0.00 | 0.00 | 0.00 | 65 | 1011.6 |
| 20260503070143 | 44 | 265 | 0.9 | 3.5 | 0.00 | 0.00 | 0.00 | 65 | 1011.7 |
| 20260503070109 | 44 | 261 | 0.9 | 3.5 | 0.00 | 0.00 | 0.00 | 65 | 1011.7 |
| 20260503060135 | 38 | 131 | 0.0 | 0.9 | 0.00 | 0.06 | 0.00 | 91 | 1014.2 |
| 20260503060114 | 44 | 271 | 0.9 | 2.6 | 0.00 | 0.00 | 0.00 | 65 | 1012.1 |
| 20260503055119 | 38 | 131 | 0.0 | 1.7 | 0.00 | 0.06 | 0.00 | 91 | 1014.4 |
| 20260503055115 | 38 | 131 | 0.0 | 1.7 | 0.00 | 0.06 | 0.00 | 91 | 1014.1 |
| 20260503055102 | 38 | 131 | 0.0 | 1.7 | 0.00 | 0.06 | 0.00 | 91 | 1014.2 |
| 20260503055044 | 44 | 271 | 0.9 | 1.7 | 0.00 | 0.00 | 0.00 | 66 | 1012.2 |
| 20260503055034 | 38 | 131 | 0.9 | 1.7 | 0.00 | 0.06 | 0.00 | 91 | 1014.1 |
| 20260503055030 | 38 | 131 | 0.0 | 1.7 | 0.00 | 0.06 | 0.00 | 91 | 1014.2 |
| 20260503055021 | 38 | 131 | 0.9 | 1.7 | 0.00 | 0.06 | 0.00 | 91 | 1014.1 |
| 20260503055017 | 38 | 131 | 0.9 | 1.7 | 0.00 | 0.06 | 0.00 | 91 | 1014.1 |
| 20260503055008 | 38 | 131 | 0.0 | 0.9 | 0.00 | 0.06 | 0.00 | 91 | 1014.1 |
| 20260503054957 | 38 | 131 | 0.0 | 1.7 | 0.00 | 0.06 | 0.00 | 91 | 1014.1 |
| 20260503054940 | 44 | 271 | 0.9 | 1.7 | 0.00 | 0.00 | 0.00 | 65 | 1012.2 |
| 20260503054913 | 44 | 271 | 0.9 | 2.6 | 0.00 | 0.00 | 0.00 | 65 | 1012.3 |
| 20260503054804 | 44 | 271 | 0.9 | 2.6 | 0.00 | 0.00 | 0.00 | 66 | 1012.3 |
| 20260503054732 | 44 | 271 | 0.9 | 2.6 | 0.00 | 0.00 | 0.00 | 66 | 1012.3 |
| 20260503054708 | 44 | 271 | 0.9 | 2.6 | 0.00 | 0.00 | 0.00 | 66 | 1012.3 |
| 20260503054639 | 44 | 271 | 0.9 | 2.6 | 0.00 | 0.00 | 0.00 | 66 | 1012.3 |
| 20260503054615 | 44 | 271 | 0.9 | 2.6 | 0.00 | 0.00 | 0.00 | 65 | 1012.3 |
| 20260503054539 | 44 | 271 | 0.9 | 2.6 | 0.00 | 0.00 | 0.00 | 65 | 1012.3 |
| 20260503054508 | 44 | 271 | 0.9 | 2.6 | 0.00 | 0.00 | 0.00 | 65 | 1012.3 |
| 20260503054413 | 44 | 271 | 0.9 | 2.6 | 0.00 | 0.00 | 0.00 | 66 | 1012.3 |
| 20260503054340 | 44 | 269 | 0.9 | 2.6 | 0.00 | 0.00 | 0.00 | 66 | 1012.4 |
| 20260503054313 | 44 | 269 | 0.9 | 2.6 | 0.00 | 0.00 | 0.00 | 66 | 1012.4 |
| 20260503054030 | 44 | 269 | 0.9 | 2.6 | 0.00 | 0.00 | 0.00 | 66 | 1012.3 |
| 20260503053959 | 44 | 269 | 0.9 | 2.6 | 0.00 | 0.00 | 0.00 | 66 | 1012.3 |
| 20260503053936 | 44 | 269 | 0.9 | 2.6 | 0.00 | 0.00 | 0.00 | 65 | 1012.3 |
| 20260503053902 | 44 | 275 | 0.9 | 2.6 | 0.00 | 0.00 | 0.00 | 65 | 1012.3 |
| 20260503053556 | 44 | 286 | 0.9 | 1.7 | 0.00 | 0.00 | 0.00 | 66 | 1012.3 |
| 20260503053218 | 44 | 286 | 0.9 | 1.7 | 0.00 | 0.00 | 0.00 | 66 | 1012.4 |
| 20260503052840 | 44 | 286 | 0.0 | 1.7 | 0.00 | 0.00 | 0.00 | 65 | 1012.3 |
| 20260503052812 | 44 | 286 | 0.0 | 1.7 | 0.00 | 0.00 | 0.00 | 65 | 1012.3 |
| 20260503052746 | 44 | 286 | 0.0 | 1.7 | 0.00 | 0.00 | 0.00 | 65 | 1012.3 |
| 20260503052717 | 44 | 286 | 0.0 | 1.7 | 0.00 | 0.00 | 0.00 | 65 | 1012.4 |
| 20260503052649 | 44 | 286 | 0.9 | 2.6 | 0.00 | 0.00 | 0.00 | 65 | 1012.5 |
| 20260503052618 | 44 | 286 | 0.9 | 2.6 | 0.00 | 0.00 | 0.00 | 65 | 1012.8 |
| 20260503052551 | 44 | 286 | 0.9 | 2.6 | 0.00 | 0.00 | 0.00 | 65 | 1012.4 |
| 20260503052525 | 44 | 286 | 0.9 | 2.6 | 0.00 | 0.00 | 0.00 | 65 | 1012.5 |
| 20260503052217 | 44 | 286 | 0.9 | 2.6 | 0.00 | 0.00 | 0.00 | 65 | 1012.4 |
| 20260503052152 | 44 | 286 | 0.9 | 2.6 | 0.00 | 0.00 | 0.00 | 64 | 1012.5 |
| 20260503052119 | 44 | 286 | 0.9 | 2.6 | 0.00 | 0.00 | 0.00 | 65 | 1012.5 |
| 20260503052053 | 44 | 286 | 0.9 | 2.6 | 0.00 | 0.00 | 0.00 | 64 | 1012.5 |
| 20260503052023 | 44 | 287 | 0.9 | 2.6 | 0.00 | 0.00 | 0.00 | 65 | 1012.5 |
| 20260503051952 | 44 | 287 | 0.9 | 2.6 | 0.00 | 0.00 | 0.00 | 65 | 1012.5 |
| 20260503051928 | 44 | 287 | 0.9 | 2.6 | 0.00 | 0.00 | 0.00 | 65 | 1012.4 |
| 20260503051901 | 44 | 287 | 0.9 | 2.6 | 0.00 | 0.00 | 0.00 | 64 | 1012.5 |
| 20260503051313 | 44 | 287 | 0.9 | 2.6 | 0.00 | 0.00 | 0.00 | 64 | 1012.5 |
| 20260503051243 | 44 | 287 | 0.9 | 2.6 | 0.00 | 0.00 | 0.00 | 64 | 1012.5 |
| 20260503051213 | 44 | 287 | 0.9 | 2.6 | 0.00 | 0.00 | 0.00 | 64 | 1012.5 |
| 20260503051146 | 44 | 287 | 0.9 | 2.6 | 0.00 | 0.00 | 0.00 | 64 | 1012.5 |
| 20260503050624 | 44 | 287 | 0.9 | 2.6 | 0.00 | 0.00 | 0.00 | 64 | 1012.6 |
| 20260503050555 | 44 | 287 | 0.9 | 2.6 | 0.00 | 0.00 | 0.00 | 64 | 1012.5 |
| 20260503050528 | 44 | 287 | 0.9 | 2.6 | 0.00 | 0.00 | 0.00 | 64 | 1012.6 |
| 20260503050458 | 44 | 287 | 0.9 | 2.6 | 0.00 | 0.00 | 0.00 | 65 | 1012.6 |
| 20260503050134 | 44 | 287 | 0.9 | 1.7 | 0.00 | 0.00 | 0.00 | 64 | 1012.6 |
| 20260503045823 | 45 | 287 | 0.9 | 1.7 | 0.00 | 0.00 | 0.00 | 64 | 1012.7 |
| 20260503045756 | 45 | 287 | 0.9 | 1.7 | 0.00 | 0.00 | 0.00 | 64 | 1012.6 |
| 20260503045727 | 45 | 287 | 0.9 | 1.7 | 0.00 | 0.00 | 0.00 | 64 | 1012.6 |
| 20260503045443 | 45 | 287 | 0.9 | 1.7 | 0.00 | 0.00 | 0.00 | 64 | 1012.6 |
| 20260503045410 | 45 | 287 | 0.9 | 3.5 | 0.00 | 0.00 | 0.00 | 64 | 1012.6 |
| 20260503044828 | 45 | 286 | 0.9 | 3.5 | 0.00 | 0.00 | 0.00 | 64 | 1012.6 |
| 20260503044755 | 45 | 286 | 0.9 | 3.5 | 0.00 | 0.00 | 0.00 | 64 | 1012.7 |
| 20260503044722 | 45 | 286 | 0.9 | 3.5 | 0.00 | 0.00 | 0.00 | 64 | 1012.6 |
| 20260503044653 | 45 | 286 | 0.9 | 3.5 | 0.00 | 0.00 | 0.00 | 64 | 1012.6 |
| 20260503044626 | 45 | 286 | 0.0 | 3.5 | 0.00 | 0.00 | 0.00 | 64 | 1012.6 |
| 20260503044317 | 45 | 285 | 0.0 | 3.5 | 0.00 | 0.00 | 0.00 | 64 | 1012.6 |
| 20260503044240 | 45 | 286 | 0.0 | 0.9 | 0.00 | 0.00 | 0.00 | 64 | 1012.6 |
| 20260503044007 | 38 | 131 | 0.9 | 0.9 | 0.00 | 0.06 | 0.00 | 91 | 1013.9 |
| 20260503043959 | 38 | 131 | 0.9 | 0.9 | 0.00 | 0.06 | 0.00 | 91 | 1013.9 |
| 20260503043955 | 38 | 131 | 0.9 | 1.7 | 0.00 | 0.06 | 0.00 | 91 | 1013.9 |
| 20260503043941 | 45 | 286 | 0.9 | 2.6 | 0.00 | 0.00 | 0.00 | 64 | 1012.6 |
| 20260503043928 | 38 | 131 | 0.9 | 1.7 | 0.00 | 0.06 | 0.00 | 91 | 1013.8 |
| 20260503043924 | 38 | 131 | 0.9 | 1.7 | 0.00 | 0.06 | 0.00 | 91 | 1014.0 |
| 20260503043917 | 38 | 131 | 0.9 | 1.7 | 0.00 | 0.06 | 0.00 | 91 | 1013.9 |
| 20260503043910 | 38 | 131 | 0.9 | 1.7 | 0.00 | 0.06 | 0.00 | 91 | 1014.0 |
| 20260503043904 | 38 | 131 | 0.9 | 1.7 | 0.00 | 0.06 | 0.00 | 91 | 1013.9 |
| 20260503043857 | 38 | 131 | 0.9 | 1.7 | 0.00 | 0.06 | 0.00 | 90 | 1013.9 |
| 20260503043840 | 45 | 286 | 0.9 | 2.6 | 0.00 | 0.00 | 0.00 | 64 | 1012.7 |
| 20260503043809 | 45 | 286 | 0.9 | 2.6 | 0.00 | 0.00 | 0.00 | 64 | 1012.7 |
| 20260503043736 | 45 | 286 | 0.9 | 2.6 | 0.00 | 0.00 | 0.00 | 64 | 1012.6 |
| 20260503043700 | 45 | 286 | 0.9 | 2.6 | 0.00 | 0.00 | 0.00 | 64 | 1012.7 |
| 20260503043630 | 45 | 286 | 0.9 | 2.6 | 0.00 | 0.00 | 0.00 | 64 | 1012.6 |
| 20260503043348 | 45 | 286 | 0.9 | 2.6 | 0.00 | 0.00 | 0.00 | 64 | 1012.6 |
| 20260503043320 | 45 | 286 | 0.9 | 2.6 | 0.00 | 0.00 | 0.00 | 64 | 1012.7 |
| 20260503043242 | 45 | 286 | 0.9 | 2.6 | 0.00 | 0.00 | 0.00 | 64 | 1012.6 |
| 20260503043211 | 45 | 286 | 0.9 | 2.6 | 0.00 | 0.00 | 0.00 | 64 | 1012.8 |
| 20260503043144 | 45 | 286 | 0.0 | 1.7 | 0.00 | 0.00 | 0.00 | 64 | 1012.7 |
| 20260503043118 | 45 | 286 | 0.0 | 1.7 | 0.00 | 0.00 | 0.00 | 64 | 1012.7 |
| 20260503043044 | 45 | 286 | 0.0 | 1.7 | 0.00 | 0.00 | 0.00 | 64 | 1012.7 |
| 20260503042805 | 45 | 286 | 0.0 | 1.7 | 0.00 | 0.00 | 0.00 | 64 | 1012.7 |
| 20260503042734 | 45 | 286 | 0.0 | 1.7 | 0.00 | 0.00 | 0.00 | 64 | 1012.7 |
| 20260503042706 | 45 | 286 | 0.0 | 1.7 | 0.00 | 0.00 | 0.00 | 64 | 1012.8 |
| 20260503042359 | 45 | 286 | 0.0 | 2.6 | 0.00 | 0.00 | 0.00 | 64 | 1012.8 |
| 20260503042329 | 45 | 286 | 0.0 | 2.6 | 0.00 | 0.00 | 0.00 | 63 | 1012.8 |
| 20260503042304 | 45 | 286 | 0.0 | 2.6 | 0.00 | 0.00 | 0.00 | 63 | 1012.8 |
| 20260503042230 | 45 | 286 | 0.9 | 2.6 | 0.00 | 0.00 | 0.00 | 63 | 1012.8 |
| 20260503041924 | 45 | 286 | 0.9 | 2.6 | 0.00 | 0.00 | 0.00 | 64 | 1012.9 |
| 20260503041848 | 45 | 286 | 0.9 | 2.6 | 0.00 | 0.00 | 0.00 | 63 | 1012.8 |
| 20260503041821 | 45 | 286 | 0.9 | 2.6 | 0.00 | 0.00 | 0.00 | 63 | 1012.8 |
| 20260503041746 | 45 | 286 | 0.9 | 2.6 | 0.00 | 0.00 | 0.00 | 63 | 1012.9 |
| 20260503041720 | 45 | 286 | 0.9 | 2.6 | 0.00 | 0.00 | 0.00 | 63 | 1013.0 |
| 20260503041654 | 45 | 285 | 0.9 | 2.6 | 0.00 | 0.00 | 0.00 | 63 | 1012.9 |
| 20260503041113 | 45 | 285 | 0.9 | 2.6 | 0.00 | 0.00 | 0.00 | 63 | 1012.9 |
| 20260503041042 | 45 | 285 | 0.9 | 2.6 | 0.00 | 0.00 | 0.00 | 63 | 1012.9 |
| 20260503041015 | 45 | 286 | 0.9 | 2.6 | 0.00 | 0.00 | 0.00 | 63 | 1012.9 |
| 20260503040939 | 45 | 286 | 0.9 | 2.6 | 0.00 | 0.00 | 0.00 | 63 | 1012.9 |
| 20260503040651 | 46 | 286 | 0.9 | 2.6 | 0.00 | 0.00 | 0.00 | 63 | 1012.9 |
| 20260503040625 | 46 | 286 | 0.9 | 2.6 | 0.00 | 0.00 | 0.00 | 64 | 1012.9 |
| 20260503040546 | 46 | 286 | 0.9 | 2.6 | 0.00 | 0.00 | 0.00 | 64 | 1012.9 |
| 20260503040518 | 46 | 286 | 0.9 | 2.6 | 0.00 | 0.00 | 0.00 | 64 | 1012.9 |
| 20260503040450 | 46 | 286 | 0.9 | 1.7 | 0.00 | 0.00 | 0.00 | 64 | 1012.9 |
| 20260503040421 | 46 | 286 | 0.9 | 1.7 | 0.00 | 0.00 | 0.00 | 64 | 1012.9 |
| 20260503040348 | 46 | 286 | 0.9 | 1.7 | 0.00 | 0.00 | 0.00 | 63 | 1012.9 |
| 20260503040319 | 46 | 286 | 0.9 | 1.7 | 0.00 | 0.00 | 0.00 | 63 | 1012.9 |
| 20260503040253 | 46 | 286 | 0.9 | 1.7 | 0.00 | 0.00 | 0.00 | 62 | 1012.9 |
| 20260503035702 | 46 | 286 | 0.9 | 1.7 | 0.00 | 0.00 | 0.00 | 63 | 1012.9 |
| 20260503035639 | 46 | 286 | 0.9 | 1.7 | 0.00 | 0.00 | 0.00 | 63 | 1013.0 |
| 20260503035609 | 46 | 285 | 0.9 | 1.7 | 0.00 | 0.00 | 0.00 | 63 | 1012.9 |
| 20260503035545 | 46 | 285 | 0.9 | 1.7 | 0.00 | 0.00 | 0.00 | 63 | 1012.9 |
| 20260503035230 | 46 | 285 | 0.9 | 2.6 | 0.00 | 0.00 | 0.00 | 63 | 1013.0 |
| 20260503035001 | 37 | 131 | 0.0 | 0.9 | 0.00 | 0.06 | 0.00 | 90 | 1014.0 |
| 20260503034956 | 37 | 131 | 0.0 | 0.9 | 0.00 | 0.06 | 0.00 | 90 | 1013.9 |
| 20260503034949 | 37 | 131 | 0.0 | 0.0 | 0.00 | 0.06 | 0.00 | 90 | 1013.7 |
| 20260503034932 | 46 | 285 | 0.9 | 2.6 | 0.00 | 0.00 | 0.00 | 63 | 1012.9 |
| 20260503034901 | 38 | 131 | 0.0 | 0.0 | 0.00 | 0.06 | 0.00 | 90 | 1013.6 |
| 20260503034838 | 46 | 285 | 0.9 | 2.6 | 0.00 | 0.00 | 0.00 | 63 | 1013.0 |
| 20260503034811 | 46 | 285 | 0.9 | 2.6 | 0.00 | 0.00 | 0.00 | 62 | 1013.0 |
| 20260503034738 | 46 | 285 | 0.9 | 2.6 | 0.00 | 0.00 | 0.00 | 62 | 1013.0 |
| 20260503034702 | 46 | 285 | 0.9 | 2.6 | 0.00 | 0.00 | 0.00 | 62 | 1013.0 |
| 20260503034431 | 38 | 131 | 0.0 | 0.0 | 0.00 | 0.06 | 0.00 | 90 | 1013.6 |
| 20260503034413 | 46 | 285 | 0.9 | 2.6 | 0.00 | 0.00 | 0.00 | 63 | 1013.1 |
| 20260503034342 | 46 | 285 | 0.9 | 2.6 | 0.00 | 0.00 | 0.00 | 63 | 1013.0 |
| 20260503034244 | 46 | 286 | 0.9 | 2.6 | 0.00 | 0.00 | 0.00 | 63 | 1013.0 |